UAE6AU YPPH-OMDB
Flight info
| Callsign | UAE6AU |
|---|---|
| Flight time | 10h 30m |
| Altitude | 32000 |
| Route | OPEGA DCT UNDER DCT SINAM DCT 24S105E 20S101E 14S095E/N0503F340 1000S09030E DCT RISMI DCT 05S085E DCT APOVU DCT PIBOR DCT BIBGO/N0495F360 L894 KITAL P570 ITURA M762 VAXAS/N0473F240 M762 MIVEK P574 IMPED |
| Aircraft | B77W/H-SDE1E2E3FGHIJ2J3J4J5M1RWXY/LB1D1 |
Departure
| Time | 2026-05-04 08:11 |
|---|---|
| Airport | Perth International Airport (YPPH) |
Arrival
| Time | 2026-05-04 18:41 |
|---|---|
| Airport | Dubai International Airport (OMDB) |
| Time | Latitude | Longitude | Altitude | Speed | Heading |
|---|---|---|---|---|---|
| 2026-05-04 06:57 | -31.94031 | 115.97308 | 96 ft | 0 kts | 152° |
| 2026-05-04 07:59 | -31.94026 | 115.97305 | 88 ft | 2 kts | 152° |
| 2026-05-04 07:59 | -31.94013 | 115.97297 | 87 ft | 2 kts | 152° |
| 2026-05-04 08:00 | -31.94000 | 115.97289 | 87 ft | 2 kts | 152° |
| 2026-05-04 08:00 | -31.93987 | 115.97280 | 86 ft | 2 kts | 158° |
| 2026-05-04 08:00 | -31.93972 | 115.97276 | 86 ft | 2 kts | 178° |
| 2026-05-04 08:02 | -31.93919 | 115.97312 | 86 ft | 0 kts | 243° |
| 2026-05-04 08:03 | -31.93920 | 115.97309 | 86 ft | 2 kts | 243° |
| 2026-05-04 08:04 | -31.93935 | 115.97275 | 85 ft | 7 kts | 243° |
| 2026-05-04 08:04 | -31.93959 | 115.97205 | 84 ft | 11 kts | 261° |
| 2026-05-04 08:04 | -31.93944 | 115.97093 | 82 ft | 14 kts | 284° |
| 2026-05-04 08:04 | -31.93916 | 115.96962 | 79 ft | 16 kts | 275° |
| 2026-05-04 08:05 | -31.93971 | 115.96873 | 80 ft | 13 kts | 197° |
| 2026-05-04 08:05 | -31.94067 | 115.96845 | 81 ft | 16 kts | 193° |
| 2026-05-04 08:05 | -31.94189 | 115.96812 | 81 ft | 19 kts | 193° |
| 2026-05-04 08:05 | -31.94326 | 115.96770 | 84 ft | 20 kts | 194° |
| 2026-05-04 08:06 | -31.94463 | 115.96731 | 84 ft | 20 kts | 193° |
| 2026-05-04 08:06 | -31.94595 | 115.96694 | 85 ft | 19 kts | 194° |
| 2026-05-04 08:06 | -31.94726 | 115.96655 | 85 ft | 18 kts | 194° |
| 2026-05-04 08:06 | -31.94846 | 115.96620 | 88 ft | 17 kts | 194° |
| 2026-05-04 08:08 | -31.95697 | 115.96374 | 91 ft | 20 kts | 194° |
| 2026-05-04 08:08 | -31.95823 | 115.96337 | 91 ft | 15 kts | 193° |
| 2026-05-04 08:10 | -31.94054 | 115.96500 | 81 ft | 174 kts | 13° |
| 2026-05-04 08:11 | -31.92774 | 115.96870 | 449 ft | 194 kts | 14° |
| 2026-05-04 08:11 | -31.90118 | 115.97621 | 1932 ft | 202 kts | 11° |
| 2026-05-04 08:11 | -31.88667 | 115.97589 | 2202 ft | 221 kts | 348° |
| 2026-05-04 08:12 | -31.87265 | 115.96826 | 2768 ft | 225 kts | 324° |
| 2026-05-04 08:12 | -31.86172 | 115.95412 | 2987 ft | 248 kts | 299° |
| 2026-05-04 08:12 | -31.85642 | 115.93404 | 3162 ft | 272 kts | 276° |
| 2026-05-04 08:12 | -31.85466 | 115.91166 | 3813 ft | 276 kts | 276° |
| 2026-05-04 08:13 | -31.85293 | 115.88917 | 4521 ft | 279 kts | 275° |
| 2026-05-04 08:13 | -31.85143 | 115.86653 | 5182 ft | 283 kts | 275° |
| 2026-05-04 08:13 | -31.84992 | 115.84343 | 5847 ft | 286 kts | 275° |
| 2026-05-04 08:13 | -31.84839 | 115.82012 | 6520 ft | 289 kts | 275° |
| 2026-05-04 08:14 | -31.84681 | 115.79631 | 7158 ft | 292 kts | 274° |
| 2026-05-04 08:14 | -31.84526 | 115.77273 | 7837 ft | 293 kts | 274° |
| 2026-05-04 08:14 | -31.84367 | 115.74869 | 8451 ft | 297 kts | 274° |
| 2026-05-04 08:16 | -31.83149 | 115.56661 | 11492 ft | 371 kts | 274° |
| 2026-05-04 08:16 | -31.82940 | 115.53579 | 11797 ft | 387 kts | 274° |
| 2026-05-04 08:16 | -31.82722 | 115.50375 | 12157 ft | 401 kts | 274° |
| 2026-05-04 08:17 | -31.82497 | 115.47090 | 12739 ft | 408 kts | 274° |
| 2026-05-04 08:17 | -31.82269 | 115.43773 | 13449 ft | 411 kts | 274° |
| 2026-05-04 08:17 | -31.82037 | 115.40398 | 14153 ft | 414 kts | 274° |
| 2026-05-04 08:17 | -31.81803 | 115.37026 | 14892 ft | 417 kts | 274° |
| 2026-05-04 08:19 | -31.78731 | 115.13083 | 19481 ft | 436 kts | 281° |
| 2026-05-04 08:19 | -31.78133 | 115.09573 | 20068 ft | 440 kts | 280° |
| 2026-05-04 08:20 | -31.77531 | 115.06036 | 20629 ft | 444 kts | 280° |
| 2026-05-04 08:20 | -31.76921 | 115.02464 | 21248 ft | 446 kts | 280° |
| 2026-05-04 08:20 | -31.76320 | 114.98943 | 21834 ft | 448 kts | 280° |
| 2026-05-04 08:20 | -31.75704 | 114.95344 | 22393 ft | 451 kts | 281° |
| 2026-05-04 08:21 | -31.75083 | 114.91723 | 22952 ft | 454 kts | 280° |
| 2026-05-04 08:21 | -31.74458 | 114.88084 | 23515 ft | 456 kts | 281° |
| 2026-05-04 08:21 | -31.73832 | 114.84447 | 24090 ft | 457 kts | 281° |
| 2026-05-04 08:21 | -31.73200 | 114.80778 | 24632 ft | 459 kts | 281° |
| 2026-05-04 08:22 | -31.72566 | 114.77112 | 25142 ft | 461 kts | 281° |
| 2026-05-04 08:22 | -31.71927 | 114.73414 | 25660 ft | 463 kts | 281° |
| 2026-05-04 08:24 | -31.67363 | 114.47221 | 28979 ft | 477 kts | 282° |
| 2026-05-04 08:24 | -31.66692 | 114.43402 | 29413 ft | 479 kts | 282° |
| 2026-05-04 08:24 | -31.66027 | 114.39620 | 29929 ft | 478 kts | 282° |
| 2026-05-04 08:24 | -31.65359 | 114.35826 | 30593 ft | 474 kts | 282° |
| 2026-05-04 08:25 | -31.64693 | 114.32053 | 31198 ft | 471 kts | 282° |
| 2026-05-04 08:25 | -31.64036 | 114.28337 | 31706 ft | 469 kts | 282° |
| 2026-05-04 08:25 | -31.63375 | 114.24606 | 32169 ft | 468 kts | 282° |
| 2026-05-04 08:25 | -31.62707 | 114.20837 | 32274 ft | 471 kts | 282° |
| 2026-05-04 08:27 | -31.57348 | 113.90878 | 32293 ft | 466 kts | 282° |
| 2026-05-04 08:28 | -31.56010 | 113.83463 | 32290 ft | 467 kts | 282° |
| 2026-05-04 08:28 | -31.54663 | 113.76024 | 32290 ft | 466 kts | 282° |
| 2026-05-04 08:29 | -31.53316 | 113.68607 | 32288 ft | 467 kts | 282° |
| 2026-05-04 08:31 | -31.47424 | 113.39062 | 32288 ft | 469 kts | 294° |
| 2026-05-04 08:33 | -31.33565 | 113.17873 | 32289 ft | 469 kts | 307° |
| 2026-05-04 08:33 | -31.31489 | 113.14919 | 32285 ft | 470 kts | 307° |
| 2026-05-04 08:35 | -31.14840 | 112.91383 | 32258 ft | 471 kts | 307° |
| 2026-05-04 08:35 | -31.10657 | 112.85497 | 32263 ft | 470 kts | 307° |
| 2026-05-04 08:37 | -30.96046 | 112.65013 | 32257 ft | 470 kts | 307° |
| 2026-05-04 08:38 | -30.91860 | 112.59165 | 32255 ft | 470 kts | 307° |
| 2026-05-04 08:38 | -30.87688 | 112.53344 | 32248 ft | 470 kts | 307° |
| 2026-05-04 08:40 | -30.70921 | 112.30040 | 32253 ft | 470 kts | 307° |
| 2026-05-04 08:41 | -30.66700 | 112.24197 | 32253 ft | 470 kts | 307° |
| 2026-05-04 08:41 | -30.62481 | 112.18362 | 32255 ft | 470 kts | 307° |
| 2026-05-04 08:42 | -30.58278 | 112.12561 | 32249 ft | 470 kts | 307° |
| 2026-05-04 08:42 | -30.54091 | 112.06789 | 32257 ft | 470 kts | 307° |
| 2026-05-04 08:43 | -30.49865 | 112.00973 | 32250 ft | 470 kts | 307° |
| 2026-05-04 08:43 | -30.45666 | 111.95200 | 32246 ft | 471 kts | 307° |
| 2026-05-04 08:44 | -30.41439 | 111.89399 | 32243 ft | 469 kts | 307° |
| 2026-05-04 08:46 | -30.24562 | 111.66321 | 32237 ft | 471 kts | 307° |
| 2026-05-04 08:46 | -30.20303 | 111.60520 | 32245 ft | 471 kts | 307° |
| 2026-05-04 08:47 | -30.16069 | 111.54758 | 32236 ft | 472 kts | 307° |
| 2026-05-04 08:47 | -30.11842 | 111.49017 | 32240 ft | 471 kts | 307° |
| 2026-05-04 08:48 | -30.07598 | 111.43260 | 32237 ft | 471 kts | 307° |
| 2026-05-04 08:48 | -30.03378 | 111.37543 | 32239 ft | 471 kts | 307° |
| 2026-05-04 08:49 | -29.99112 | 111.31773 | 32247 ft | 472 kts | 307° |
| 2026-05-04 08:50 | -29.84205 | 111.11676 | 32237 ft | 472 kts | 307° |
| 2026-05-04 08:51 | -29.79970 | 111.05985 | 32224 ft | 472 kts | 307° |
| 2026-05-04 08:51 | -29.75694 | 111.00246 | 32222 ft | 470 kts | 307° |
| 2026-05-04 08:52 | -29.71440 | 110.94546 | 32222 ft | 470 kts | 307° |
| 2026-05-04 08:52 | -29.67188 | 110.88856 | 32222 ft | 472 kts | 307° |
| 2026-05-04 08:54 | -29.50080 | 110.66045 | 32198 ft | 471 kts | 307° |
| 2026-05-04 08:55 | -29.45817 | 110.60381 | 32192 ft | 469 kts | 307° |
| 2026-05-04 08:55 | -29.41547 | 110.54716 | 32193 ft | 470 kts | 307° |
| 2026-05-04 09:01 | -28.96578 | 109.95747 | 32176 ft | 468 kts | 310° |
| 2026-05-04 09:01 | -28.92142 | 109.90363 | 32175 ft | 468 kts | 310° |
| 2026-05-04 09:02 | -28.87687 | 109.84948 | 32174 ft | 466 kts | 310° |
| 2026-05-04 09:02 | -28.83279 | 109.79591 | 32174 ft | 465 kts | 310° |
| 2026-05-04 09:03 | -28.78835 | 109.74192 | 32184 ft | 466 kts | 310° |
| 2026-05-04 09:03 | -28.74402 | 109.68812 | 32190 ft | 463 kts | 310° |
| 2026-05-04 09:04 | -28.70017 | 109.63494 | 32188 ft | 464 kts | 310° |
| 2026-05-04 09:04 | -28.65587 | 109.58129 | 32190 ft | 464 kts | 310° |
| 2026-05-04 09:05 | -28.61180 | 109.52799 | 32185 ft | 464 kts | 310° |
| 2026-05-04 09:05 | -28.56745 | 109.47442 | 32183 ft | 463 kts | 310° |
| 2026-05-04 09:06 | -28.52341 | 109.42128 | 32185 ft | 462 kts | 310° |
| 2026-05-04 09:08 | -28.34673 | 109.20882 | 32178 ft | 462 kts | 311° |
| 2026-05-04 09:08 | -28.30271 | 109.15606 | 32173 ft | 464 kts | 311° |
| 2026-05-04 09:09 | -28.25829 | 109.10290 | 32173 ft | 462 kts | 311° |
| 2026-05-04 09:09 | -28.21420 | 109.05019 | 32169 ft | 463 kts | 311° |
| 2026-05-04 09:10 | -28.16960 | 108.99693 | 32169 ft | 465 kts | 311° |
| 2026-05-04 09:10 | -28.12521 | 108.94400 | 32164 ft | 463 kts | 311° |
| 2026-05-04 09:11 | -28.08095 | 108.89128 | 32159 ft | 464 kts | 311° |
| 2026-05-04 09:11 | -28.03654 | 108.83847 | 32157 ft | 463 kts | 311° |
| 2026-05-04 09:12 | -27.99189 | 108.78543 | 32153 ft | 462 kts | 311° |
| 2026-05-04 09:14 | -27.81445 | 108.57533 | 32151 ft | 462 kts | 311° |
| 2026-05-04 09:14 | -27.77011 | 108.52299 | 32146 ft | 461 kts | 311° |
| 2026-05-04 09:15 | -27.72572 | 108.47065 | 32150 ft | 462 kts | 311° |
| 2026-05-04 09:15 | -27.68132 | 108.41839 | 32146 ft | 462 kts | 311° |
| 2026-05-04 09:17 | -27.48128 | 108.18367 | 32149 ft | 460 kts | 311° |
| 2026-05-04 09:18 | -27.43695 | 108.13183 | 32146 ft | 460 kts | 312° |
| 2026-05-04 09:18 | -27.39244 | 108.07986 | 32142 ft | 461 kts | 312° |
| 2026-05-04 09:19 | -27.34826 | 108.02832 | 32140 ft | 460 kts | 312° |
| 2026-05-04 09:19 | -27.30375 | 107.97646 | 32139 ft | 460 kts | 312° |
| 2026-05-04 09:20 | -27.25925 | 107.92469 | 32145 ft | 459 kts | 312° |
| 2026-05-04 09:20 | -27.21491 | 107.87315 | 32139 ft | 459 kts | 312° |
| 2026-05-04 09:21 | -27.17070 | 107.82184 | 32140 ft | 462 kts | 312° |
| 2026-05-04 09:21 | -27.12601 | 107.77003 | 32137 ft | 460 kts | 312° |
| 2026-05-04 09:22 | -27.08158 | 107.71859 | 32135 ft | 459 kts | 312° |
| 2026-05-04 09:22 | -27.03715 | 107.66721 | 32131 ft | 461 kts | 312° |
| 2026-05-04 09:23 | -26.99249 | 107.61562 | 32127 ft | 457 kts | 312° |
| 2026-05-04 09:23 | -26.94845 | 107.56481 | 32126 ft | 458 kts | 313° |
| 2026-05-04 09:25 | -26.77095 | 107.36064 | 32124 ft | 456 kts | 312° |
| 2026-05-04 09:26 | -26.72691 | 107.31014 | 32129 ft | 455 kts | 313° |
| 2026-05-04 09:26 | -26.68275 | 107.25954 | 32131 ft | 455 kts | 313° |
| 2026-05-04 09:27 | -26.63869 | 107.20915 | 32128 ft | 452 kts | 312° |
| 2026-05-04 09:27 | -26.59449 | 107.15863 | 32130 ft | 454 kts | 313° |
| 2026-05-04 09:28 | -26.55078 | 107.10875 | 32119 ft | 452 kts | 312° |
| 2026-05-04 09:28 | -26.50678 | 107.05858 | 32125 ft | 451 kts | 312° |
| 2026-05-04 09:29 | -26.46279 | 107.00848 | 32121 ft | 453 kts | 312° |
| 2026-05-04 09:29 | -26.41881 | 106.95845 | 32134 ft | 453 kts | 312° |
| 2026-05-04 09:30 | -26.37492 | 106.90859 | 32117 ft | 451 kts | 312° |
| 2026-05-04 09:30 | -26.33109 | 106.85886 | 32110 ft | 448 kts | 311° |
| 2026-05-04 09:31 | -26.28713 | 106.80901 | 32122 ft | 452 kts | 312° |
| 2026-05-04 09:31 | -26.24348 | 106.75960 | 32111 ft | 449 kts | 311° |
| 2026-05-04 09:32 | -26.19957 | 106.70994 | 32114 ft | 448 kts | 311° |
| 2026-05-04 09:34 | -26.02513 | 106.51321 | 32108 ft | 447 kts | 311° |
| 2026-05-04 09:34 | -25.97750 | 106.46857 | 32097 ft | 452 kts | 320° |
| 2026-05-04 09:35 | -25.92614 | 106.42934 | 32109 ft | 449 kts | 320° |
| 2026-05-04 09:35 | -25.87411 | 106.38985 | 32102 ft | 450 kts | 321° |
| 2026-05-04 09:37 | -25.66869 | 106.23481 | 32117 ft | 445 kts | 320° |
| 2026-05-04 09:38 | -25.61728 | 106.19613 | 32096 ft | 447 kts | 321° |
| 2026-05-04 09:38 | -25.56604 | 106.15765 | 32100 ft | 443 kts | 320° |
| 2026-05-04 09:39 | -25.51529 | 106.11956 | 32091 ft | 442 kts | 320° |
| 2026-05-04 09:39 | -25.46418 | 106.08124 | 32101 ft | 441 kts | 320° |
| 2026-05-04 09:40 | -25.41351 | 106.04329 | 32099 ft | 441 kts | 320° |
| 2026-05-04 09:40 | -25.36273 | 106.00531 | 32095 ft | 438 kts | 320° |
| 2026-05-04 09:42 | -25.16110 | 105.85485 | 32089 ft | 435 kts | 319° |
| 2026-05-04 09:43 | -25.11077 | 105.81737 | 32086 ft | 436 kts | 319° |
| 2026-05-04 09:43 | -25.06058 | 105.78007 | 32077 ft | 433 kts | 319° |
| 2026-05-04 09:44 | -25.01094 | 105.74321 | 32086 ft | 428 kts | 319° |
| 2026-05-04 09:46 | -24.81210 | 105.59584 | 32089 ft | 432 kts | 318° |
| 2026-05-04 09:46 | -24.76240 | 105.55910 | 32079 ft | 433 kts | 318° |
| 2026-05-04 09:47 | -24.71256 | 105.52231 | 32072 ft | 429 kts | 318° |
| 2026-05-04 09:49 | -24.51377 | 105.37586 | 32069 ft | 430 kts | 318° |
| 2026-05-04 09:51 | -24.33957 | 105.24800 | 32081 ft | 430 kts | 318° |
| 2026-05-04 09:51 | -24.28956 | 105.21137 | 32089 ft | 432 kts | 318° |
| 2026-05-04 09:52 | -24.23986 | 105.17501 | 32082 ft | 432 kts | 318° |
| 2026-05-04 09:52 | -24.19002 | 105.13859 | 32081 ft | 429 kts | 318° |
| 2026-05-04 09:53 | -24.14011 | 105.10214 | 32076 ft | 430 kts | 318° |
| 2026-05-04 09:53 | -24.09054 | 105.06598 | 32068 ft | 429 kts | 318° |
| 2026-05-04 09:54 | -24.04080 | 105.02971 | 32078 ft | 430 kts | 317° |
| 2026-05-04 09:54 | -23.99249 | 104.99199 | 32068 ft | 423 kts | 310° |
| 2026-05-04 09:55 | -23.94998 | 104.94804 | 32072 ft | 421 kts | 309° |
| 2026-05-04 09:55 | -23.90774 | 104.90400 | 32068 ft | 421 kts | 309° |
| 2026-05-04 09:56 | -23.86535 | 104.85988 | 32072 ft | 421 kts | 309° |
| 2026-05-04 09:56 | -23.82298 | 104.81584 | 32072 ft | 421 kts | 309° |
| 2026-05-04 09:57 | -23.78032 | 104.77155 | 32069 ft | 421 kts | 309° |
| 2026-05-04 09:57 | -23.73796 | 104.72762 | 32072 ft | 422 kts | 309° |
| 2026-05-04 09:58 | -23.69550 | 104.68362 | 32064 ft | 421 kts | 309° |
| 2026-05-04 09:58 | -23.65298 | 104.63962 | 32066 ft | 423 kts | 309° |
| 2026-05-04 10:00 | -23.48210 | 104.46318 | 32059 ft | 425 kts | 309° |
| 2026-05-04 10:04 | -23.18115 | 104.15405 | 32080 ft | 425 kts | 309° |
| 2026-05-04 10:04 | -23.13783 | 104.10970 | 32075 ft | 429 kts | 309° |
| 2026-05-04 10:05 | -23.09457 | 104.06549 | 32075 ft | 426 kts | 309° |
| 2026-05-04 10:05 | -23.05126 | 104.02123 | 32076 ft | 428 kts | 309° |
| 2026-05-04 10:06 | -23.00805 | 103.97716 | 32073 ft | 426 kts | 309° |
| 2026-05-04 10:06 | -22.96491 | 103.93317 | 32072 ft | 426 kts | 309° |
| 2026-05-04 10:08 | -22.81273 | 103.77831 | 32062 ft | 429 kts | 309° |
| 2026-05-04 10:08 | -22.76940 | 103.73433 | 32060 ft | 428 kts | 309° |
| 2026-05-04 10:09 | -22.72603 | 103.69032 | 32056 ft | 428 kts | 309° |
| 2026-05-04 10:09 | -22.68249 | 103.64620 | 32045 ft | 429 kts | 310° |
| 2026-05-04 10:10 | -22.63856 | 103.60171 | 32045 ft | 431 kts | 309° |
| 2026-05-04 10:10 | -22.59502 | 103.55766 | 32042 ft | 429 kts | 309° |
| 2026-05-04 10:11 | -22.55154 | 103.51372 | 32041 ft | 428 kts | 309° |
| 2026-05-04 10:11 | -22.50793 | 103.46967 | 32039 ft | 431 kts | 310° |
| 2026-05-04 10:12 | -22.46417 | 103.42553 | 32033 ft | 429 kts | 309° |
| 2026-05-04 10:12 | -22.42057 | 103.38158 | 32033 ft | 430 kts | 310° |
| 2026-05-04 10:13 | -22.37707 | 103.33778 | 32052 ft | 429 kts | 310° |
| 2026-05-04 10:13 | -22.33325 | 103.29367 | 32052 ft | 430 kts | 310° |
| 2026-05-04 10:14 | -22.28959 | 103.24979 | 32048 ft | 428 kts | 310° |
| 2026-05-04 10:16 | -22.11434 | 103.07400 | 32053 ft | 430 kts | 310° |
| 2026-05-04 10:16 | -22.07065 | 103.03028 | 32054 ft | 429 kts | 310° |
| 2026-05-04 10:17 | -22.02671 | 102.98634 | 32054 ft | 431 kts | 310° |
| 2026-05-04 10:19 | -21.85111 | 102.81114 | 32049 ft | 431 kts | 310° |
| 2026-05-04 10:19 | -21.80690 | 102.76713 | 32047 ft | 432 kts | 310° |
| 2026-05-04 10:20 | -21.76304 | 102.72351 | 32044 ft | 431 kts | 310° |
| 2026-05-04 10:20 | -21.71904 | 102.67979 | 32046 ft | 431 kts | 310° |
| 2026-05-04 10:21 | -21.67499 | 102.63604 | 32037 ft | 432 kts | 310° |
| 2026-05-04 10:21 | -21.63073 | 102.59212 | 32022 ft | 433 kts | 311° |
| 2026-05-04 10:22 | -21.56429 | 102.52629 | 32028 ft | 433 kts | 311° |
| 2026-05-04 10:23 | -21.51992 | 102.48236 | 32027 ft | 433 kts | 311° |
| 2026-05-04 10:25 | -21.34276 | 102.30739 | 32045 ft | 433 kts | 311° |
| 2026-05-04 10:25 | -21.29806 | 102.26332 | 32045 ft | 434 kts | 311° |
| 2026-05-04 10:26 | -21.25381 | 102.21974 | 32042 ft | 434 kts | 311° |
| 2026-05-04 10:26 | -21.20943 | 102.17608 | 32043 ft | 435 kts | 311° |
| 2026-05-04 10:27 | -21.16487 | 102.13227 | 32039 ft | 433 kts | 311° |
| 2026-05-04 10:27 | -21.12020 | 102.08839 | 32037 ft | 436 kts | 311° |
| 2026-05-04 10:28 | -21.07566 | 102.04469 | 32036 ft | 436 kts | 311° |
| 2026-05-04 10:28 | -21.03073 | 102.00062 | 32033 ft | 437 kts | 311° |
| 2026-05-04 10:29 | -20.98609 | 101.95689 | 32032 ft | 435 kts | 311° |
| 2026-05-04 10:29 | -20.94129 | 101.91303 | 32031 ft | 436 kts | 312° |
| 2026-05-04 10:30 | -20.89668 | 101.86940 | 32029 ft | 436 kts | 311° |
| 2026-05-04 10:30 | -20.85172 | 101.82546 | 32031 ft | 437 kts | 312° |
| 2026-05-04 10:31 | -20.80700 | 101.78179 | 32029 ft | 438 kts | 312° |
| 2026-05-04 10:32 | -20.64965 | 101.62844 | 32022 ft | 439 kts | 312° |
| 2026-05-04 10:33 | -20.60461 | 101.58464 | 32020 ft | 439 kts | 312° |
| 2026-05-04 10:33 | -20.55962 | 101.54091 | 32017 ft | 438 kts | 312° |
| 2026-05-04 10:34 | -20.51432 | 101.49691 | 32014 ft | 439 kts | 312° |
| 2026-05-04 10:34 | -20.46917 | 101.45311 | 32012 ft | 439 kts | 312° |
| 2026-05-04 10:35 | -20.42405 | 101.40936 | 32013 ft | 439 kts | 312° |
| 2026-05-04 10:35 | -20.37878 | 101.36551 | 32005 ft | 439 kts | 312° |
| 2026-05-04 10:36 | -20.33359 | 101.32178 | 32030 ft | 439 kts | 312° |
| 2026-05-04 10:36 | -20.28835 | 101.27801 | 32021 ft | 441 kts | 313° |
| 2026-05-04 10:37 | -20.24272 | 101.23392 | 32021 ft | 440 kts | 313° |
| 2026-05-04 10:37 | -20.19745 | 101.19022 | 32025 ft | 441 kts | 313° |
| 2026-05-04 10:39 | -20.03825 | 101.03680 | 32018 ft | 442 kts | 313° |
| 2026-05-04 10:40 | -19.99260 | 100.99282 | 32008 ft | 442 kts | 311° |
| 2026-05-04 10:40 | -19.94916 | 100.94723 | 32010 ft | 440 kts | 310° |
| 2026-05-04 10:41 | -19.90582 | 100.90144 | 32011 ft | 442 kts | 310° |
| 2026-05-04 10:41 | -19.86196 | 100.85530 | 32011 ft | 440 kts | 310° |
| 2026-05-04 10:42 | -19.81856 | 100.80974 | 32011 ft | 442 kts | 310° |
| 2026-05-04 10:42 | -19.77469 | 100.76378 | 32010 ft | 443 kts | 310° |
| 2026-05-04 10:43 | -19.73346 | 100.72063 | 32009 ft | 442 kts | 310° |
| 2026-05-04 10:45 | -19.55761 | 100.53704 | 32005 ft | 444 kts | 310° |
| 2026-05-04 10:45 | -19.51381 | 100.49141 | 32004 ft | 444 kts | 311° |
| 2026-05-04 10:46 | -19.46971 | 100.44550 | 32004 ft | 445 kts | 310° |
| 2026-05-04 10:46 | -19.42559 | 100.39960 | 32002 ft | 445 kts | 310° |
| 2026-05-04 10:47 | -19.38147 | 100.35375 | 32002 ft | 446 kts | 311° |
| 2026-05-04 10:47 | -19.33694 | 100.30751 | 32018 ft | 447 kts | 311° |
| 2026-05-04 10:49 | -19.15932 | 100.12344 | 32014 ft | 447 kts | 311° |
| 2026-05-04 10:50 | -19.11489 | 100.07748 | 32014 ft | 448 kts | 311° |
| 2026-05-04 10:52 | -18.93652 | 99.89336 | 32010 ft | 450 kts | 311° |
| 2026-05-04 10:52 | -18.89155 | 99.84702 | 32008 ft | 451 kts | 311° |
| 2026-05-04 10:54 | -18.71209 | 99.66252 | 32003 ft | 451 kts | 311° |
| 2026-05-04 10:56 | -18.53175 | 99.47767 | 31996 ft | 453 kts | 311° |
| 2026-05-04 10:57 | -18.48672 | 99.43161 | 31995 ft | 453 kts | 311° |
| 2026-05-04 10:57 | -18.44131 | 99.38519 | 31992 ft | 455 kts | 311° |
| 2026-05-04 10:58 | -18.39603 | 99.33894 | 32002 ft | 455 kts | 312° |
| 2026-05-04 10:58 | -18.35081 | 99.29279 | 32003 ft | 456 kts | 312° |
| 2026-05-04 10:59 | -18.30507 | 99.24615 | 31999 ft | 456 kts | 312° |
| 2026-05-04 10:59 | -18.25962 | 99.19983 | 31996 ft | 457 kts | 312° |
| 2026-05-04 11:00 | -18.21381 | 99.15319 | 31995 ft | 457 kts | 312° |
| 2026-05-04 11:02 | -18.03054 | 98.96693 | 31991 ft | 460 kts | 312° |
| 2026-05-04 11:05 | -17.68525 | 98.61756 | 31978 ft | 461 kts | 313° |
| 2026-05-04 11:06 | -17.63884 | 98.57076 | 31980 ft | 461 kts | 312° |
| 2026-05-04 11:06 | -17.59280 | 98.52435 | 31979 ft | 461 kts | 312° |
| 2026-05-04 11:10 | -17.26799 | 98.19797 | 31977 ft | 463 kts | 313° |
| 2026-05-04 11:12 | -17.08159 | 98.01143 | 31977 ft | 464 kts | 313° |
| 2026-05-04 11:12 | -17.03487 | 97.96477 | 31968 ft | 465 kts | 313° |
| 2026-05-04 11:13 | -16.98809 | 97.91807 | 31971 ft | 466 kts | 313° |
| 2026-05-04 11:13 | -16.94112 | 97.87122 | 31966 ft | 465 kts | 313° |
| 2026-05-04 11:14 | -16.93341 | 97.86353 | 31966 ft | 465 kts | 313° |
| 2026-05-04 11:16 | -16.70685 | 97.63804 | 31964 ft | 467 kts | 313° |
| 2026-05-04 11:16 | -16.65962 | 97.59113 | 31964 ft | 467 kts | 313° |
| 2026-05-04 11:17 | -16.61282 | 97.54468 | 31962 ft | 466 kts | 314° |
| 2026-05-04 11:19 | -16.42433 | 97.35794 | 31961 ft | 469 kts | 314° |
| 2026-05-04 11:19 | -16.37731 | 97.31144 | 31974 ft | 469 kts | 314° |
| 2026-05-04 11:20 | -16.32994 | 97.26463 | 31966 ft | 469 kts | 314° |
| 2026-05-04 11:20 | -16.28286 | 97.21812 | 31966 ft | 468 kts | 314° |
| 2026-05-04 11:22 | -16.09286 | 97.03081 | 31949 ft | 472 kts | 314° |
| 2026-05-04 11:23 | -16.04542 | 96.98413 | 31954 ft | 471 kts | 314° |
| 2026-05-04 11:25 | -15.87884 | 96.82044 | 31966 ft | 472 kts | 314° |
| 2026-05-04 11:25 | -15.83093 | 96.77344 | 31960 ft | 471 kts | 314° |
| 2026-05-04 11:27 | -15.61643 | 96.56337 | 31955 ft | 471 kts | 314° |
| 2026-05-04 11:28 | -15.56892 | 96.51694 | 31950 ft | 471 kts | 314° |
| 2026-05-04 11:28 | -15.52116 | 96.47028 | 31952 ft | 470 kts | 315° |
| 2026-05-04 11:29 | -15.47380 | 96.42406 | 31954 ft | 470 kts | 315° |
| 2026-05-04 11:29 | -15.42616 | 96.37757 | 31956 ft | 470 kts | 315° |
| 2026-05-04 11:33 | -15.09266 | 96.05309 | 31950 ft | 469 kts | 315° |
| 2026-05-04 11:33 | -15.04489 | 96.00674 | 31952 ft | 470 kts | 315° |
| 2026-05-04 11:34 | -14.99725 | 95.96054 | 31948 ft | 472 kts | 315° |
| 2026-05-04 11:34 | -14.94932 | 95.91408 | 31949 ft | 471 kts | 315° |
| 2026-05-04 11:35 | -14.90146 | 95.86773 | 31949 ft | 470 kts | 315° |
| 2026-05-04 11:35 | -14.85352 | 95.82133 | 31950 ft | 471 kts | 315° |
| 2026-05-04 11:36 | -14.80592 | 95.77528 | 31949 ft | 471 kts | 315° |
| 2026-05-04 11:36 | -14.75805 | 95.72900 | 31944 ft | 471 kts | 315° |
| 2026-05-04 11:37 | -14.71006 | 95.68264 | 31944 ft | 471 kts | 315° |
| 2026-05-04 11:37 | -14.66233 | 95.63656 | 31941 ft | 471 kts | 315° |
| 2026-05-04 11:38 | -14.61423 | 95.59014 | 31938 ft | 472 kts | 315° |
| 2026-05-04 11:38 | -14.56593 | 95.54356 | 32263 ft | 478 kts | 315° |
| 2026-05-04 11:39 | -14.54184 | 95.52035 | 32986 ft | 473 kts | 315° |
| 2026-05-04 11:39 | -14.51818 | 95.49756 | 33754 ft | 467 kts | 315° |
| 2026-05-04 11:40 | -14.37561 | 95.36033 | 33928 ft | 466 kts | 316° |
| 2026-05-04 11:41 | -14.35178 | 95.33742 | 33934 ft | 466 kts | 316° |
| 2026-05-04 11:41 | -14.30441 | 95.29189 | 33933 ft | 465 kts | 316° |
| 2026-05-04 11:42 | -14.25689 | 95.24626 | 33926 ft | 466 kts | 316° |
| 2026-05-04 11:42 | -14.20956 | 95.20082 | 33924 ft | 466 kts | 316° |
| 2026-05-04 11:43 | -14.16211 | 95.15531 | 33915 ft | 466 kts | 316° |
| 2026-05-04 11:43 | -14.11478 | 95.10993 | 33912 ft | 466 kts | 316° |
| 2026-05-04 11:44 | -14.06716 | 95.06431 | 33913 ft | 467 kts | 316° |
| 2026-05-04 11:44 | -14.01975 | 95.01891 | 33907 ft | 467 kts | 316° |
| 2026-05-04 11:45 | -13.97363 | 94.97205 | 33912 ft | 466 kts | 311° |
| 2026-05-04 11:45 | -13.93082 | 94.92165 | 33907 ft | 467 kts | 311° |
| 2026-05-04 11:46 | -13.88801 | 94.87167 | 33910 ft | 466 kts | 311° |
| 2026-05-04 11:46 | -13.84504 | 94.82182 | 33909 ft | 466 kts | 311° |
| 2026-05-04 11:47 | -13.80191 | 94.77200 | 33907 ft | 465 kts | 311° |
| 2026-05-04 11:47 | -13.75859 | 94.72206 | 33906 ft | 466 kts | 311° |
| 2026-05-04 11:48 | -13.71552 | 94.67250 | 33903 ft | 466 kts | 311° |
| 2026-05-04 11:48 | -13.67232 | 94.62285 | 33902 ft | 467 kts | 311° |
| 2026-05-04 11:49 | -13.62905 | 94.57316 | 33899 ft | 466 kts | 311° |
| 2026-05-04 11:49 | -13.58580 | 94.52352 | 33899 ft | 468 kts | 311° |
| 2026-05-04 11:50 | -13.54248 | 94.47384 | 33900 ft | 467 kts | 311° |
| 2026-05-04 11:50 | -13.49923 | 94.42426 | 33897 ft | 467 kts | 311° |
| 2026-05-04 11:51 | -13.45576 | 94.37447 | 33900 ft | 467 kts | 311° |
| 2026-05-04 11:51 | -13.41217 | 94.32458 | 33909 ft | 468 kts | 312° |
| 2026-05-04 11:52 | -13.36883 | 94.27499 | 33913 ft | 468 kts | 312° |
| 2026-05-04 11:52 | -13.32537 | 94.22530 | 33918 ft | 469 kts | 312° |
| 2026-05-04 11:53 | -13.28179 | 94.17550 | 33917 ft | 469 kts | 312° |
| 2026-05-04 11:53 | -13.23840 | 94.12595 | 33914 ft | 469 kts | 312° |
| 2026-05-04 11:55 | -13.06371 | 93.92672 | 33908 ft | 471 kts | 312° |
| 2026-05-04 11:56 | -13.02000 | 93.87695 | 33910 ft | 470 kts | 312° |
| 2026-05-04 11:56 | -12.97615 | 93.82705 | 33907 ft | 470 kts | 312° |
| 2026-05-04 11:57 | -12.93235 | 93.77723 | 33905 ft | 470 kts | 312° |
| 2026-05-04 11:57 | -12.88844 | 93.72730 | 33907 ft | 469 kts | 312° |
| 2026-05-04 11:58 | -12.84450 | 93.67738 | 33910 ft | 471 kts | 312° |
| 2026-05-04 11:58 | -12.80073 | 93.62767 | 33906 ft | 471 kts | 312° |
| 2026-05-04 11:59 | -12.75686 | 93.57788 | 33904 ft | 471 kts | 312° |
| 2026-05-04 11:59 | -12.71291 | 93.52802 | 33904 ft | 470 kts | 312° |
| 2026-05-04 12:00 | -12.66926 | 93.47855 | 33902 ft | 469 kts | 312° |
| 2026-05-04 12:00 | -12.62551 | 93.42898 | 33903 ft | 470 kts | 312° |
| 2026-05-04 12:01 | -12.58133 | 93.37895 | 33902 ft | 470 kts | 312° |
| 2026-05-04 12:02 | -12.42797 | 93.20550 | 33905 ft | 470 kts | 312° |
| 2026-05-04 12:03 | -12.38413 | 93.15597 | 33910 ft | 471 kts | 312° |
| 2026-05-04 12:03 | -12.34022 | 93.10640 | 33911 ft | 470 kts | 312° |
| 2026-05-04 12:04 | -12.29637 | 93.05692 | 33911 ft | 470 kts | 312° |
| 2026-05-04 12:04 | -12.25224 | 93.00715 | 33908 ft | 471 kts | 312° |
| 2026-05-04 12:05 | -12.20839 | 92.95773 | 33907 ft | 470 kts | 312° |
| 2026-05-04 12:05 | -12.16436 | 92.90812 | 33906 ft | 471 kts | 312° |
| 2026-05-04 12:06 | -12.12046 | 92.85870 | 33906 ft | 471 kts | 312° |
| 2026-05-04 12:06 | -12.07621 | 92.80890 | 33906 ft | 469 kts | 312° |
| 2026-05-04 12:07 | -12.03230 | 92.75951 | 33905 ft | 471 kts | 312° |
| 2026-05-04 12:07 | -11.98831 | 92.71004 | 33905 ft | 471 kts | 312° |
| 2026-05-04 12:08 | -11.94426 | 92.66054 | 33905 ft | 471 kts | 313° |
| 2026-05-04 12:08 | -11.90004 | 92.61089 | 33902 ft | 471 kts | 312° |
| 2026-05-04 12:09 | -11.85585 | 92.56129 | 33908 ft | 473 kts | 312° |
| 2026-05-04 12:09 | -11.81190 | 92.51199 | 33896 ft | 472 kts | 313° |
| 2026-05-04 12:10 | -11.76763 | 92.46234 | 33886 ft | 471 kts | 313° |
| 2026-05-04 12:10 | -11.72340 | 92.41277 | 33881 ft | 472 kts | 313° |
| 2026-05-04 12:11 | -11.67915 | 92.36321 | 33879 ft | 472 kts | 313° |
| 2026-05-04 12:11 | -11.63480 | 92.31355 | 33884 ft | 472 kts | 313° |
| 2026-05-04 12:12 | -11.59057 | 92.26406 | 33885 ft | 475 kts | 313° |
| 2026-05-04 12:12 | -11.54631 | 92.21456 | 33883 ft | 473 kts | 313° |
| 2026-05-04 12:14 | -11.36879 | 92.01627 | 33888 ft | 473 kts | 313° |
| 2026-05-04 12:15 | -11.32426 | 91.96659 | 33888 ft | 473 kts | 313° |
| 2026-05-04 12:15 | -11.28001 | 91.91724 | 33887 ft | 474 kts | 313° |
| 2026-05-04 12:16 | -11.23550 | 91.86764 | 33887 ft | 474 kts | 313° |
| 2026-05-04 12:16 | -11.19099 | 91.81805 | 33887 ft | 474 kts | 313° |
| 2026-05-04 12:17 | -11.14642 | 91.76843 | 33886 ft | 474 kts | 313° |
| 2026-05-04 12:17 | -11.10226 | 91.71929 | 33886 ft | 474 kts | 313° |
| 2026-05-04 12:18 | -11.05758 | 91.66959 | 33886 ft | 474 kts | 313° |
| 2026-05-04 12:18 | -11.01297 | 91.61999 | 33886 ft | 474 kts | 313° |
| 2026-05-04 12:19 | -10.96846 | 91.57053 | 33885 ft | 475 kts | 313° |
| 2026-05-04 12:19 | -10.92379 | 91.52091 | 33884 ft | 475 kts | 313° |
| 2026-05-04 12:20 | -10.87916 | 91.47137 | 33889 ft | 475 kts | 313° |
| 2026-05-04 12:20 | -10.83447 | 91.42178 | 33889 ft | 476 kts | 313° |
| 2026-05-04 12:21 | -10.78972 | 91.37214 | 33889 ft | 475 kts | 313° |
| 2026-05-04 12:21 | -10.74525 | 91.32284 | 33892 ft | 476 kts | 313° |
| 2026-05-04 12:22 | -10.70026 | 91.27299 | 33890 ft | 476 kts | 313° |
| 2026-05-04 12:22 | -10.65549 | 91.22340 | 33890 ft | 477 kts | 313° |
| 2026-05-04 12:23 | -10.61038 | 91.17347 | 33889 ft | 478 kts | 313° |
| 2026-05-04 12:23 | -10.56536 | 91.12365 | 33890 ft | 479 kts | 313° |
| 2026-05-04 12:24 | -10.52033 | 91.07384 | 33889 ft | 478 kts | 313° |
| 2026-05-04 12:24 | -10.47530 | 91.02406 | 33889 ft | 480 kts | 314° |
| 2026-05-04 12:25 | -10.43046 | 90.97451 | 33889 ft | 478 kts | 314° |
| 2026-05-04 12:25 | -10.38517 | 90.92449 | 33888 ft | 480 kts | 314° |
| 2026-05-04 12:26 | -10.33997 | 90.87460 | 33889 ft | 479 kts | 314° |
| 2026-05-04 12:26 | -10.29500 | 90.82497 | 33887 ft | 480 kts | 314° |
| 2026-05-04 12:27 | -10.24971 | 90.77502 | 33887 ft | 480 kts | 314° |
| 2026-05-04 12:27 | -10.20454 | 90.72523 | 33887 ft | 479 kts | 314° |
| 2026-05-04 12:28 | -10.15932 | 90.67539 | 33885 ft | 480 kts | 314° |
| 2026-05-04 12:28 | -10.11406 | 90.62553 | 33879 ft | 480 kts | 314° |
| 2026-05-04 12:29 | -10.06883 | 90.57574 | 33867 ft | 480 kts | 314° |
| 2026-05-04 12:29 | -10.02352 | 90.52588 | 33865 ft | 480 kts | 314° |
| 2026-05-04 12:30 | -9.97821 | 90.47581 | 33867 ft | 480 kts | 313° |
| 2026-05-04 12:30 | -9.93315 | 90.42539 | 33864 ft | 481 kts | 313° |
| 2026-05-04 12:31 | -9.88820 | 90.37516 | 33870 ft | 481 kts | 313° |
| 2026-05-04 12:31 | -9.84328 | 90.32499 | 33870 ft | 481 kts | 314° |
| 2026-05-04 12:32 | -9.77587 | 90.24977 | 33870 ft | 481 kts | 314° |
| 2026-05-04 12:33 | -9.73105 | 90.19979 | 33870 ft | 480 kts | 314° |
| 2026-05-04 12:33 | -9.68592 | 90.14948 | 33870 ft | 481 kts | 314° |
| 2026-05-04 12:34 | -9.64101 | 90.09945 | 33869 ft | 481 kts | 314° |
| 2026-05-04 12:34 | -9.59610 | 90.04945 | 33869 ft | 481 kts | 314° |
| 2026-05-04 12:35 | -9.55086 | 89.99908 | 33868 ft | 482 kts | 314° |
| 2026-05-04 12:35 | -9.50574 | 89.94888 | 33867 ft | 481 kts | 314° |
| 2026-05-04 12:36 | -9.46060 | 89.89867 | 33870 ft | 482 kts | 314° |
| 2026-05-04 12:36 | -9.41560 | 89.84864 | 33868 ft | 481 kts | 314° |
| 2026-05-04 12:37 | -9.37044 | 89.79847 | 33868 ft | 482 kts | 314° |
| 2026-05-04 12:37 | -9.32527 | 89.74828 | 33868 ft | 482 kts | 314° |
| 2026-05-04 12:38 | -9.28007 | 89.69811 | 33868 ft | 484 kts | 314° |
| 2026-05-04 12:38 | -9.23480 | 89.64786 | 33867 ft | 484 kts | 314° |
| 2026-05-04 12:39 | -9.18938 | 89.59747 | 33868 ft | 483 kts | 314° |
| 2026-05-04 12:39 | -9.14426 | 89.54743 | 33878 ft | 483 kts | 314° |
| 2026-05-04 12:40 | -9.09891 | 89.49716 | 33868 ft | 484 kts | 314° |
| 2026-05-04 12:40 | -9.05334 | 89.44667 | 33867 ft | 485 kts | 314° |
| 2026-05-04 12:41 | -9.00766 | 89.39607 | 33866 ft | 486 kts | 314° |
| 2026-05-04 12:41 | -8.96219 | 89.34574 | 33863 ft | 487 kts | 314° |
| 2026-05-04 12:42 | -8.91651 | 89.29517 | 33866 ft | 486 kts | 314° |
| 2026-05-04 12:42 | -8.87100 | 89.24483 | 33867 ft | 486 kts | 314° |
| 2026-05-04 12:43 | -8.82529 | 89.19428 | 33866 ft | 486 kts | 314° |
| 2026-05-04 12:43 | -8.77988 | 89.14409 | 33871 ft | 485 kts | 314° |
| 2026-05-04 12:44 | -8.73431 | 89.09373 | 33874 ft | 487 kts | 314° |
| 2026-05-04 12:44 | -8.68853 | 89.04317 | 33882 ft | 486 kts | 314° |
| 2026-05-04 12:45 | -8.64282 | 88.99269 | 33876 ft | 486 kts | 314° |
| 2026-05-04 12:45 | -8.59718 | 88.94233 | 33871 ft | 486 kts | 314° |
| 2026-05-04 12:46 | -8.55176 | 88.89221 | 33871 ft | 485 kts | 314° |
| 2026-05-04 12:46 | -8.50620 | 88.84197 | 33872 ft | 484 kts | 314° |
| 2026-05-04 12:47 | -8.46063 | 88.79173 | 33866 ft | 484 kts | 314° |
| 2026-05-04 12:47 | -8.41499 | 88.74144 | 33861 ft | 484 kts | 314° |
| 2026-05-04 12:48 | -8.36968 | 88.69152 | 33861 ft | 484 kts | 314° |
| 2026-05-04 12:48 | -8.32419 | 88.64143 | 33860 ft | 483 kts | 314° |
| 2026-05-04 12:49 | -8.27871 | 88.59137 | 33856 ft | 483 kts | 314° |
| 2026-05-04 12:49 | -8.23355 | 88.54168 | 33856 ft | 482 kts | 314° |
| 2026-05-04 12:50 | -8.18811 | 88.49169 | 33860 ft | 482 kts | 314° |
| 2026-05-04 12:50 | -8.14275 | 88.44182 | 33860 ft | 482 kts | 314° |
| 2026-05-04 12:51 | -8.09769 | 88.39229 | 33855 ft | 481 kts | 314° |
| 2026-05-04 12:51 | -8.05238 | 88.34250 | 33850 ft | 479 kts | 314° |
| 2026-05-04 12:52 | -8.00716 | 88.29284 | 33851 ft | 480 kts | 314° |
| 2026-05-04 12:52 | -7.96209 | 88.24334 | 33851 ft | 480 kts | 314° |
| 2026-05-04 12:53 | -7.91702 | 88.19388 | 33846 ft | 479 kts | 314° |
| 2026-05-04 12:53 | -7.87185 | 88.14432 | 33859 ft | 479 kts | 314° |
| 2026-05-04 12:54 | -7.82679 | 88.09489 | 33865 ft | 480 kts | 314° |
| 2026-05-04 12:54 | -7.78171 | 88.04546 | 33872 ft | 481 kts | 314° |
| 2026-05-04 12:55 | -7.73645 | 87.99585 | 33870 ft | 480 kts | 314° |
| 2026-05-04 12:55 | -7.69101 | 87.94606 | 33871 ft | 481 kts | 314° |
| 2026-05-04 12:56 | -7.64562 | 87.89634 | 33870 ft | 482 kts | 314° |
| 2026-05-04 12:56 | -7.60058 | 87.84703 | 33870 ft | 482 kts | 314° |
| 2026-05-04 12:57 | -7.55501 | 87.79715 | 33872 ft | 483 kts | 314° |
| 2026-05-04 12:57 | -7.50940 | 87.74724 | 33871 ft | 484 kts | 314° |
| 2026-05-04 12:58 | -7.46349 | 87.69701 | 33866 ft | 485 kts | 314° |
| 2026-05-04 12:58 | -7.41781 | 87.64706 | 33870 ft | 487 kts | 314° |
| 2026-05-04 12:59 | -7.37202 | 87.59701 | 33868 ft | 485 kts | 314° |
| 2026-05-04 12:59 | -7.32608 | 87.54681 | 33867 ft | 489 kts | 314° |
| 2026-05-04 13:00 | -7.28007 | 87.49654 | 33869 ft | 488 kts | 314° |
| 2026-05-04 13:00 | -7.23391 | 87.44614 | 33866 ft | 488 kts | 314° |
| 2026-05-04 13:01 | -7.18769 | 87.39568 | 33858 ft | 490 kts | 314° |
| 2026-05-04 13:01 | -7.14137 | 87.34512 | 33850 ft | 491 kts | 314° |
| 2026-05-04 13:02 | -7.09525 | 87.29447 | 33848 ft | 491 kts | 314° |
| 2026-05-04 13:02 | -7.04921 | 87.24369 | 33849 ft | 492 kts | 313° |
| 2026-05-04 13:03 | -7.00332 | 87.19312 | 33851 ft | 491 kts | 313° |
| 2026-05-04 13:03 | -6.95691 | 87.14199 | 33849 ft | 492 kts | 313° |
| 2026-05-04 13:04 | -6.91095 | 87.09138 | 33848 ft | 492 kts | 313° |
| 2026-05-04 13:04 | -6.86473 | 87.04051 | 33850 ft | 493 kts | 313° |
| 2026-05-04 13:05 | -6.81827 | 86.98938 | 33848 ft | 493 kts | 313° |
| 2026-05-04 13:05 | -6.77206 | 86.93855 | 33848 ft | 494 kts | 313° |
| 2026-05-04 13:06 | -6.72566 | 86.88752 | 33848 ft | 493 kts | 313° |
| 2026-05-04 13:06 | -6.67918 | 86.83643 | 33848 ft | 493 kts | 313° |
| 2026-05-04 13:07 | -6.63301 | 86.78569 | 33848 ft | 492 kts | 313° |
| 2026-05-04 13:07 | -6.58683 | 86.73495 | 33847 ft | 493 kts | 313° |
| 2026-05-04 13:08 | -6.54049 | 86.68405 | 33848 ft | 493 kts | 313° |
| 2026-05-04 13:08 | -6.49398 | 86.63299 | 33849 ft | 494 kts | 313° |
| 2026-05-04 13:09 | -6.44770 | 86.58219 | 33848 ft | 494 kts | 313° |
| 2026-05-04 13:09 | -6.40137 | 86.53135 | 33848 ft | 494 kts | 314° |
| 2026-05-04 13:10 | -6.35504 | 86.48053 | 33848 ft | 494 kts | 313° |
| 2026-05-04 13:10 | -6.30858 | 86.42956 | 33849 ft | 494 kts | 314° |
| 2026-05-04 13:11 | -6.26222 | 86.37875 | 33848 ft | 495 kts | 313° |
| 2026-05-04 13:11 | -6.21573 | 86.32779 | 33847 ft | 494 kts | 314° |
| 2026-05-04 13:12 | -6.16910 | 86.27669 | 33849 ft | 496 kts | 314° |
| 2026-05-04 13:12 | -6.12234 | 86.22547 | 33851 ft | 496 kts | 314° |
| 2026-05-04 13:13 | -6.07582 | 86.17451 | 33849 ft | 495 kts | 314° |
| 2026-05-04 13:13 | -6.02927 | 86.12356 | 33846 ft | 495 kts | 314° |
| 2026-05-04 13:14 | -5.98262 | 86.07250 | 33847 ft | 495 kts | 314° |
| 2026-05-04 13:14 | -5.93633 | 86.02184 | 33856 ft | 496 kts | 314° |
| 2026-05-04 13:15 | -5.88945 | 85.97056 | 33857 ft | 496 kts | 314° |
| 2026-05-04 13:15 | -5.84296 | 85.91971 | 33866 ft | 497 kts | 314° |
| 2026-05-04 13:16 | -5.79621 | 85.86858 | 33865 ft | 495 kts | 314° |
| 2026-05-04 13:16 | -5.74967 | 85.81772 | 33855 ft | 494 kts | 314° |
| 2026-05-04 13:17 | -5.70318 | 85.76691 | 33850 ft | 494 kts | 314° |
| 2026-05-04 13:17 | -5.65678 | 85.71622 | 33847 ft | 494 kts | 314° |
| 2026-05-04 13:18 | -5.61040 | 85.66557 | 33850 ft | 494 kts | 314° |
| 2026-05-04 13:18 | -5.56367 | 85.61453 | 33848 ft | 494 kts | 314° |
| 2026-05-04 13:19 | -5.51733 | 85.56394 | 33850 ft | 492 kts | 314° |
| 2026-05-04 13:19 | -5.47115 | 85.51354 | 33849 ft | 491 kts | 314° |
| 2026-05-04 13:20 | -5.42478 | 85.46294 | 33848 ft | 492 kts | 314° |
| 2026-05-04 13:20 | -5.37858 | 85.41254 | 33848 ft | 492 kts | 314° |
| 2026-05-04 13:21 | -5.33236 | 85.36213 | 33848 ft | 491 kts | 314° |
| 2026-05-04 13:21 | -5.28585 | 85.31142 | 33845 ft | 491 kts | 314° |
| 2026-05-04 13:22 | -5.23975 | 85.26117 | 33845 ft | 491 kts | 314° |
| 2026-05-04 13:22 | -5.19346 | 85.21072 | 33844 ft | 491 kts | 314° |
| 2026-05-04 13:23 | -5.14740 | 85.16053 | 33846 ft | 491 kts | 314° |
| 2026-05-04 13:23 | -5.10119 | 85.11020 | 33845 ft | 491 kts | 314° |
| 2026-05-04 13:24 | -5.05478 | 85.05965 | 33845 ft | 490 kts | 314° |
| 2026-05-04 13:24 | -5.00885 | 85.00964 | 33845 ft | 489 kts | 314° |
| 2026-05-04 13:25 | -4.93720 | 84.93629 | 33846 ft | 490 kts | 316° |
| 2026-05-04 13:25 | -4.88916 | 84.88826 | 33849 ft | 489 kts | 316° |
| 2026-05-04 13:26 | -4.84072 | 84.83973 | 33850 ft | 491 kts | 316° |
| 2026-05-04 13:26 | -4.79273 | 84.79160 | 33851 ft | 489 kts | 316° |
| 2026-05-04 13:27 | -4.74459 | 84.74327 | 33850 ft | 490 kts | 316° |
| 2026-05-04 13:27 | -4.69622 | 84.69473 | 33851 ft | 490 kts | 316° |
| 2026-05-04 13:28 | -4.64816 | 84.64649 | 33852 ft | 489 kts | 316° |
| 2026-05-04 13:28 | -4.59999 | 84.59814 | 33854 ft | 490 kts | 316° |
| 2026-05-04 13:29 | -4.55195 | 84.54993 | 33856 ft | 490 kts | 316° |
| 2026-05-04 13:29 | -4.50389 | 84.50171 | 33863 ft | 490 kts | 316° |
| 2026-05-04 13:30 | -4.45538 | 84.45304 | 33869 ft | 490 kts | 316° |
| 2026-05-04 13:30 | -4.40704 | 84.40456 | 33869 ft | 490 kts | 316° |
| 2026-05-04 13:31 | -4.35905 | 84.35643 | 33869 ft | 490 kts | 316° |
| 2026-05-04 13:31 | -4.31063 | 84.30788 | 33864 ft | 490 kts | 316° |
| 2026-05-04 13:32 | -4.26267 | 84.25980 | 33867 ft | 490 kts | 316° |
| 2026-05-04 13:32 | -4.21450 | 84.21152 | 33867 ft | 490 kts | 317° |
| 2026-05-04 13:33 | -4.16634 | 84.16327 | 33867 ft | 491 kts | 316° |
| 2026-05-04 13:33 | -4.11818 | 84.11501 | 33866 ft | 490 kts | 316° |
| 2026-05-04 13:34 | -4.06977 | 84.06652 | 33865 ft | 490 kts | 316° |
| 2026-05-04 13:34 | -4.02166 | 84.01833 | 33866 ft | 490 kts | 317° |
| 2026-05-04 13:35 | -3.94951 | 83.94609 | 33865 ft | 489 kts | 317° |
| 2026-05-04 13:36 | -3.90104 | 83.89757 | 33866 ft | 491 kts | 317° |
| 2026-05-04 13:36 | -3.85272 | 83.84920 | 33866 ft | 491 kts | 317° |
| 2026-05-04 13:37 | -3.80474 | 83.80119 | 33858 ft | 491 kts | 317° |
| 2026-05-04 13:37 | -3.75638 | 83.75279 | 33859 ft | 490 kts | 317° |
| 2026-05-04 13:38 | -3.70835 | 83.70475 | 33856 ft | 490 kts | 317° |
| 2026-05-04 13:38 | -3.65982 | 83.65620 | 33867 ft | 490 kts | 317° |
| 2026-05-04 13:39 | -3.61175 | 83.60813 | 33869 ft | 490 kts | 317° |
| 2026-05-04 13:39 | -3.56345 | 83.55984 | 33866 ft | 490 kts | 317° |
| 2026-05-04 13:40 | -3.51500 | 83.51140 | 33869 ft | 490 kts | 317° |
| 2026-05-04 13:40 | -3.46670 | 83.46311 | 33871 ft | 490 kts | 317° |
| 2026-05-04 13:41 | -3.41841 | 83.41486 | 33870 ft | 491 kts | 317° |
| 2026-05-04 13:41 | -3.37028 | 83.36675 | 33870 ft | 490 kts | 317° |
| 2026-05-04 13:42 | -3.29790 | 83.29443 | 33866 ft | 490 kts | 317° |
| 2026-05-04 13:42 | -3.24952 | 83.24611 | 33866 ft | 490 kts | 317° |
| 2026-05-04 13:43 | -3.20113 | 83.19778 | 33866 ft | 490 kts | 317° |
| 2026-05-04 13:43 | -3.15297 | 83.14967 | 33866 ft | 490 kts | 317° |
| 2026-05-04 13:44 | -3.10441 | 83.10120 | 33866 ft | 491 kts | 317° |
| 2026-05-04 13:44 | -3.05612 | 83.05298 | 33866 ft | 491 kts | 317° |
| 2026-05-04 13:45 | -3.00775 | 83.00469 | 33866 ft | 491 kts | 317° |
| 2026-05-04 13:45 | -2.95941 | 82.95644 | 33866 ft | 491 kts | 317° |
| 2026-05-04 13:46 | -2.91100 | 82.90813 | 33869 ft | 491 kts | 317° |
| 2026-05-04 13:46 | -2.86291 | 82.86015 | 33871 ft | 490 kts | 317° |
| 2026-05-04 13:47 | -2.81461 | 82.81195 | 33869 ft | 491 kts | 317° |
| 2026-05-04 13:47 | -2.76604 | 82.76350 | 33871 ft | 491 kts | 317° |
| 2026-05-04 13:48 | -2.71777 | 82.71535 | 33876 ft | 491 kts | 317° |
| 2026-05-04 13:48 | -2.66936 | 82.66706 | 33879 ft | 490 kts | 317° |
| 2026-05-04 13:49 | -2.62115 | 82.61899 | 33881 ft | 490 kts | 317° |
| 2026-05-04 13:49 | -2.57289 | 82.57086 | 33884 ft | 490 kts | 317° |
| 2026-05-04 13:50 | -2.52452 | 82.52264 | 33885 ft | 490 kts | 316° |
| 2026-05-04 13:50 | -2.47628 | 82.47454 | 33892 ft | 489 kts | 316° |
| 2026-05-04 13:51 | -2.42791 | 82.42633 | 33896 ft | 490 kts | 316° |
| 2026-05-04 13:51 | -2.37991 | 82.37849 | 33893 ft | 490 kts | 316° |
| 2026-05-04 13:52 | -2.30748 | 82.30631 | 33888 ft | 490 kts | 316° |
| 2026-05-04 13:53 | -2.25893 | 82.25793 | 33889 ft | 490 kts | 316° |
| 2026-05-04 13:53 | -2.21078 | 82.20996 | 33889 ft | 490 kts | 316° |
| 2026-05-04 13:54 | -2.13832 | 82.13776 | 33889 ft | 489 kts | 316° |
| 2026-05-04 13:55 | -2.06592 | 82.06565 | 33887 ft | 491 kts | 316° |
| 2026-05-04 13:55 | -1.99339 | 81.99342 | 33878 ft | 491 kts | 316° |
| 2026-05-04 13:56 | -1.94484 | 81.94481 | 33868 ft | 491 kts | 316° |
| 2026-05-04 13:57 | -1.87265 | 81.87252 | 33874 ft | 490 kts | 316° |
| 2026-05-04 13:58 | -1.77609 | 81.77587 | 33876 ft | 491 kts | 316° |
| 2026-05-04 13:58 | -1.70380 | 81.70352 | 33880 ft | 491 kts | 316° |
| 2026-05-04 13:59 | -1.65540 | 81.65508 | 33880 ft | 491 kts | 316° |
| 2026-05-04 14:00 | -1.58302 | 81.58266 | 33887 ft | 492 kts | 316° |
| 2026-05-04 14:00 | -1.51054 | 81.51014 | 33884 ft | 492 kts | 316° |
| 2026-05-04 14:01 | -1.46216 | 81.46174 | 33886 ft | 491 kts | 316° |
| 2026-05-04 14:02 | -1.38966 | 81.38921 | 33888 ft | 492 kts | 316° |
| 2026-05-04 14:02 | -1.34108 | 81.34063 | 33888 ft | 492 kts | 316° |
| 2026-05-04 14:03 | -1.29236 | 81.29190 | 33887 ft | 493 kts | 316° |
| 2026-05-04 14:03 | -1.24413 | 81.24367 | 33889 ft | 493 kts | 316° |
| 2026-05-04 14:04 | -1.17116 | 81.17069 | 33888 ft | 494 kts | 316° |
| 2026-05-04 14:04 | -1.12298 | 81.12251 | 33888 ft | 493 kts | 316° |
| 2026-05-04 14:05 | -1.04988 | 81.04942 | 33888 ft | 493 kts | 316° |
| 2026-05-04 14:06 | -1.00115 | 81.00069 | 33887 ft | 494 kts | 316° |
| 2026-05-04 14:06 | -0.95289 | 80.95244 | 33889 ft | 493 kts | 316° |
| 2026-05-04 14:07 | -0.90424 | 80.90380 | 33887 ft | 495 kts | 316° |
| 2026-05-04 14:07 | -0.85578 | 80.85535 | 33890 ft | 494 kts | 316° |
| 2026-05-04 14:08 | -0.80689 | 80.80647 | 33892 ft | 494 kts | 316° |
| 2026-05-04 14:08 | -0.75836 | 80.75796 | 33890 ft | 495 kts | 316° |
| 2026-05-04 14:09 | -0.68529 | 80.68491 | 33891 ft | 494 kts | 316° |
| 2026-05-04 14:10 | -0.61234 | 80.61200 | 33890 ft | 493 kts | 316° |
| 2026-05-04 14:10 | -0.56383 | 80.56351 | 33893 ft | 493 kts | 316° |
| 2026-05-04 14:11 | -0.51530 | 80.51502 | 33895 ft | 494 kts | 316° |
| 2026-05-04 14:11 | -0.44247 | 80.44221 | 33898 ft | 493 kts | 316° |
| 2026-05-04 14:12 | -0.39391 | 80.39368 | 33902 ft | 494 kts | 316° |
| 2026-05-04 14:13 | -0.32115 | 80.32096 | 33905 ft | 492 kts | 316° |
| 2026-05-04 14:13 | -0.27279 | 80.27263 | 33907 ft | 492 kts | 316° |
| 2026-05-04 14:14 | -0.22428 | 80.22414 | 33911 ft | 493 kts | 316° |
| 2026-05-04 14:14 | -0.15179 | 80.15170 | 33908 ft | 491 kts | 316° |
| 2026-05-04 14:15 | -0.05529 | 80.05525 | 33908 ft | 490 kts | 316° |
| 2026-05-04 14:16 | 0.01705 | 79.98296 | 33908 ft | 490 kts | 316° |
| 2026-05-04 14:17 | 0.08930 | 79.91076 | 33908 ft | 490 kts | 316° |
| 2026-05-04 14:18 | 0.16150 | 79.83860 | 33911 ft | 490 kts | 316° |
| 2026-05-04 14:19 | 0.25775 | 79.74240 | 33911 ft | 488 kts | 316° |
| 2026-05-04 14:19 | 0.30585 | 79.69434 | 33910 ft | 489 kts | 316° |
| 2026-05-04 14:20 | 0.35382 | 79.64638 | 33910 ft | 489 kts | 315° |
| 2026-05-04 14:20 | 0.40175 | 79.59848 | 33910 ft | 488 kts | 315° |
| 2026-05-04 14:21 | 0.47389 | 79.52638 | 33909 ft | 489 kts | 315° |
| 2026-05-04 14:21 | 0.52219 | 79.47811 | 33910 ft | 489 kts | 315° |
| 2026-05-04 14:22 | 0.57040 | 79.42992 | 33910 ft | 490 kts | 315° |
| 2026-05-04 14:22 | 0.61849 | 79.38185 | 33909 ft | 489 kts | 315° |
| 2026-05-04 14:23 | 0.69058 | 79.30979 | 33909 ft | 489 kts | 315° |
| 2026-05-04 14:24 | 0.73871 | 79.26168 | 33907 ft | 487 kts | 315° |
| 2026-05-04 14:24 | 0.78662 | 79.21378 | 33908 ft | 488 kts | 315° |
| 2026-05-04 14:25 | 0.83454 | 79.16589 | 33908 ft | 489 kts | 315° |
| 2026-05-04 14:25 | 0.90689 | 79.09355 | 33908 ft | 490 kts | 315° |
| 2026-05-04 14:26 | 0.95496 | 79.04549 | 33908 ft | 490 kts | 315° |
| 2026-05-04 14:26 | 1.00325 | 78.99721 | 33908 ft | 489 kts | 315° |
| 2026-05-04 14:27 | 1.05106 | 78.94940 | 33908 ft | 489 kts | 315° |
| 2026-05-04 14:27 | 1.09906 | 78.90141 | 33908 ft | 488 kts | 315° |
| 2026-05-04 14:28 | 1.14726 | 78.85321 | 33910 ft | 489 kts | 315° |
| 2026-05-04 14:28 | 1.19504 | 78.80543 | 33910 ft | 489 kts | 315° |
| 2026-05-04 14:29 | 1.29152 | 78.70893 | 33915 ft | 490 kts | 315° |
| 2026-05-04 14:30 | 1.33986 | 78.66058 | 33918 ft | 490 kts | 315° |
| 2026-05-04 14:31 | 1.41192 | 78.58851 | 33919 ft | 489 kts | 315° |
| 2026-05-04 14:32 | 1.50839 | 78.49200 | 33919 ft | 490 kts | 315° |
| 2026-05-04 14:32 | 1.55643 | 78.44394 | 33919 ft | 490 kts | 315° |
| 2026-05-04 14:33 | 1.60459 | 78.39575 | 33923 ft | 490 kts | 315° |
| 2026-05-04 14:33 | 1.65288 | 78.34744 | 33927 ft | 491 kts | 315° |
| 2026-05-04 14:34 | 1.70102 | 78.29926 | 33929 ft | 492 kts | 315° |
| 2026-05-04 14:34 | 1.74931 | 78.25095 | 33930 ft | 491 kts | 315° |
| 2026-05-04 14:35 | 1.79761 | 78.20260 | 33930 ft | 492 kts | 315° |
| 2026-05-04 14:35 | 1.84596 | 78.15421 | 33929 ft | 492 kts | 315° |
| 2026-05-04 14:36 | 1.89434 | 78.10578 | 33930 ft | 491 kts | 315° |
| 2026-05-04 14:36 | 1.94271 | 78.05735 | 33929 ft | 492 kts | 315° |
| 2026-05-04 14:37 | 1.99097 | 78.00899 | 33926 ft | 493 kts | 314° |
| 2026-05-04 14:37 | 2.03469 | 77.95609 | 33929 ft | 494 kts | 308° |
| 2026-05-04 14:38 | 2.07746 | 77.90185 | 33925 ft | 493 kts | 308° |
| 2026-05-04 14:38 | 2.11984 | 77.84810 | 33927 ft | 493 kts | 308° |
| 2026-05-04 14:39 | 2.16238 | 77.79415 | 33922 ft | 493 kts | 309° |
| 2026-05-04 14:39 | 2.20475 | 77.74043 | 33925 ft | 493 kts | 309° |
| 2026-05-04 14:40 | 2.26818 | 77.65998 | 33921 ft | 493 kts | 309° |
| 2026-05-04 14:40 | 2.31065 | 77.60611 | 33919 ft | 494 kts | 309° |
| 2026-05-04 14:41 | 2.35334 | 77.55196 | 33917 ft | 495 kts | 308° |
| 2026-05-04 14:42 | 2.43849 | 77.44393 | 33914 ft | 496 kts | 309° |
| 2026-05-04 14:42 | 2.48113 | 77.38982 | 33915 ft | 495 kts | 309° |
| 2026-05-04 14:43 | 2.52379 | 77.33568 | 33908 ft | 494 kts | 308° |
| 2026-05-04 14:43 | 2.56643 | 77.28155 | 33912 ft | 496 kts | 309° |
| 2026-05-04 14:44 | 2.60894 | 77.22759 | 33910 ft | 497 kts | 309° |
| 2026-05-04 14:44 | 2.65182 | 77.17316 | 33907 ft | 499 kts | 308° |
| 2026-05-04 14:45 | 2.69480 | 77.11859 | 33911 ft | 500 kts | 308° |
| 2026-05-04 14:45 | 2.73798 | 77.06376 | 33910 ft | 499 kts | 308° |
| 2026-05-04 14:46 | 2.78087 | 77.00929 | 33911 ft | 499 kts | 308° |
| 2026-05-04 14:46 | 2.82394 | 76.95458 | 33908 ft | 499 kts | 308° |
| 2026-05-04 14:47 | 2.86690 | 76.90001 | 33909 ft | 500 kts | 308° |
| 2026-05-04 14:47 | 2.90994 | 76.84532 | 33910 ft | 500 kts | 308° |
| 2026-05-04 14:48 | 2.95286 | 76.79078 | 33907 ft | 500 kts | 308° |
| 2026-05-04 14:48 | 2.99589 | 76.73609 | 33904 ft | 500 kts | 308° |
| 2026-05-04 14:49 | 3.03897 | 76.68134 | 33907 ft | 500 kts | 308° |
| 2026-05-04 14:49 | 3.08218 | 76.62640 | 33911 ft | 502 kts | 308° |
| 2026-05-04 14:50 | 3.12513 | 76.57180 | 33912 ft | 503 kts | 308° |
| 2026-05-04 14:50 | 3.16847 | 76.51668 | 33911 ft | 501 kts | 308° |
| 2026-05-04 14:51 | 3.21136 | 76.46214 | 33922 ft | 500 kts | 308° |
| 2026-05-04 14:51 | 3.25437 | 76.40743 | 33897 ft | 501 kts | 309° |
| 2026-05-04 14:52 | 3.29760 | 76.35243 | 33909 ft | 502 kts | 308° |
| 2026-05-04 14:52 | 3.34070 | 76.29758 | 33913 ft | 501 kts | 309° |
| 2026-05-04 14:53 | 3.38384 | 76.24269 | 33902 ft | 501 kts | 309° |
| 2026-05-04 14:53 | 3.42693 | 76.18784 | 33908 ft | 501 kts | 309° |
| 2026-05-04 14:54 | 3.46981 | 76.13325 | 33904 ft | 500 kts | 308° |
| 2026-05-04 14:54 | 3.51272 | 76.07862 | 33899 ft | 500 kts | 309° |
| 2026-05-04 14:55 | 3.55568 | 76.02392 | 33896 ft | 499 kts | 309° |
| 2026-05-04 14:55 | 3.59868 | 75.96915 | 33898 ft | 500 kts | 309° |
| 2026-05-04 14:56 | 3.64174 | 75.91429 | 33899 ft | 500 kts | 309° |
| 2026-05-04 14:56 | 3.68473 | 75.85953 | 33898 ft | 501 kts | 308° |
| 2026-05-04 14:57 | 3.72790 | 75.80450 | 33897 ft | 501 kts | 308° |
| 2026-05-04 14:57 | 3.77105 | 75.74951 | 33897 ft | 501 kts | 308° |
| 2026-05-04 14:58 | 3.81394 | 75.69483 | 33892 ft | 500 kts | 308° |
| 2026-05-04 14:58 | 3.85683 | 75.64015 | 33893 ft | 500 kts | 309° |
| 2026-05-04 14:59 | 3.89988 | 75.58525 | 33895 ft | 502 kts | 309° |
| 2026-05-04 15:00 | 3.96436 | 75.50301 | 33888 ft | 502 kts | 308° |
| 2026-05-04 15:00 | 4.00734 | 75.44817 | 33894 ft | 501 kts | 308° |
| 2026-05-04 15:01 | 4.07160 | 75.36616 | 33889 ft | 500 kts | 308° |
| 2026-05-04 15:01 | 4.11486 | 75.31094 | 33888 ft | 500 kts | 309° |
| 2026-05-04 15:02 | 4.15774 | 75.25620 | 33886 ft | 500 kts | 308° |
| 2026-05-04 15:02 | 4.20063 | 75.20143 | 33898 ft | 499 kts | 308° |
| 2026-05-04 15:03 | 4.24329 | 75.14694 | 33908 ft | 499 kts | 308° |
| 2026-05-04 15:03 | 4.28623 | 75.09209 | 33903 ft | 499 kts | 308° |
| 2026-05-04 15:04 | 4.32887 | 75.03760 | 33905 ft | 498 kts | 308° |
| 2026-05-04 15:04 | 4.37170 | 74.98288 | 33903 ft | 497 kts | 308° |
| 2026-05-04 15:05 | 4.41439 | 74.92831 | 33903 ft | 498 kts | 308° |
| 2026-05-04 15:05 | 4.45708 | 74.87373 | 33902 ft | 497 kts | 309° |
| 2026-05-04 15:06 | 4.49990 | 74.81897 | 33900 ft | 497 kts | 308° |
| 2026-05-04 15:07 | 4.56399 | 74.73698 | 33885 ft | 497 kts | 309° |
| 2026-05-04 15:07 | 4.60665 | 74.68242 | 33882 ft | 498 kts | 309° |
| 2026-05-04 15:08 | 4.64932 | 74.62781 | 33884 ft | 498 kts | 309° |
| 2026-05-04 15:08 | 4.69219 | 74.57293 | 33885 ft | 498 kts | 309° |
| 2026-05-04 15:09 | 4.73490 | 74.51825 | 33884 ft | 498 kts | 309° |
| 2026-05-04 15:09 | 4.77768 | 74.46347 | 33887 ft | 498 kts | 309° |
| 2026-05-04 15:10 | 4.84173 | 74.38142 | 33892 ft | 499 kts | 309° |
| 2026-05-04 15:11 | 4.90559 | 74.29959 | 33889 ft | 499 kts | 309° |
| 2026-05-04 15:11 | 4.94846 | 74.24465 | 33887 ft | 499 kts | 309° |
| 2026-05-04 15:12 | 4.99121 | 74.18984 | 33888 ft | 499 kts | 309° |
| 2026-05-04 15:12 | 5.03406 | 74.13488 | 33888 ft | 500 kts | 309° |
| 2026-05-04 15:13 | 5.07695 | 74.07986 | 33888 ft | 501 kts | 309° |
| 2026-05-04 15:13 | 5.11995 | 74.02470 | 33890 ft | 503 kts | 309° |
| 2026-05-04 15:14 | 5.16280 | 73.96971 | 33890 ft | 502 kts | 308° |
| 2026-05-04 15:14 | 5.20581 | 73.91451 | 33896 ft | 501 kts | 308° |
| 2026-05-04 15:15 | 5.24863 | 73.85952 | 33901 ft | 501 kts | 308° |
| 2026-05-04 15:15 | 5.29162 | 73.80432 | 33905 ft | 501 kts | 308° |
| 2026-05-04 15:16 | 5.35578 | 73.72189 | 33905 ft | 502 kts | 308° |
| 2026-05-04 15:17 | 5.42045 | 73.63878 | 33903 ft | 502 kts | 308° |
| 2026-05-04 15:17 | 5.48475 | 73.55611 | 33901 ft | 502 kts | 308° |
| 2026-05-04 15:18 | 5.52778 | 73.50077 | 33901 ft | 501 kts | 308° |
| 2026-05-04 15:19 | 5.59214 | 73.41798 | 33909 ft | 502 kts | 308° |
| 2026-05-04 15:19 | 5.65635 | 73.33534 | 33912 ft | 502 kts | 308° |
| 2026-05-04 15:20 | 5.69948 | 73.27981 | 33908 ft | 501 kts | 308° |
| 2026-05-04 15:20 | 5.74240 | 73.22454 | 33909 ft | 503 kts | 308° |
| 2026-05-04 15:21 | 5.78548 | 73.16904 | 33909 ft | 502 kts | 308° |
| 2026-05-04 15:22 | 5.84981 | 73.08614 | 33909 ft | 502 kts | 308° |
| 2026-05-04 15:22 | 5.91401 | 73.00338 | 33906 ft | 501 kts | 308° |
| 2026-05-04 15:23 | 5.95703 | 72.94790 | 33912 ft | 501 kts | 308° |
| 2026-05-04 15:23 | 5.99974 | 72.89282 | 33911 ft | 502 kts | 308° |
| 2026-05-04 15:24 | 6.08561 | 72.78200 | 33908 ft | 503 kts | 308° |
| 2026-05-04 15:25 | 6.12859 | 72.72650 | 33909 ft | 504 kts | 308° |
| 2026-05-04 15:26 | 6.19301 | 72.64329 | 33909 ft | 503 kts | 308° |
| 2026-05-04 15:26 | 6.25729 | 72.56023 | 33895 ft | 503 kts | 308° |
| 2026-05-04 15:27 | 6.32165 | 72.47704 | 33886 ft | 503 kts | 308° |
| 2026-05-04 15:28 | 6.38630 | 72.39343 | 33886 ft | 504 kts | 307° |
| 2026-05-04 15:29 | 6.45058 | 72.31027 | 33887 ft | 503 kts | 307° |
| 2026-05-04 15:30 | 6.60085 | 72.11568 | 33889 ft | 503 kts | 307° |
| 2026-05-04 15:31 | 6.66512 | 72.03239 | 33889 ft | 504 kts | 307° |
| 2026-05-04 15:32 | 6.77246 | 71.89320 | 33888 ft | 505 kts | 307° |
| 2026-05-04 15:34 | 6.87996 | 71.75369 | 33891 ft | 506 kts | 307° |
| 2026-05-04 15:34 | 6.94537 | 71.66873 | 35107 ft | 508 kts | 307° |
| 2026-05-04 15:35 | 6.98835 | 71.61289 | 35885 ft | 508 kts | 308° |
| 2026-05-04 15:35 | 7.00984 | 71.58497 | 35889 ft | 504 kts | 308° |
| 2026-05-04 15:36 | 7.07491 | 71.50038 | 35890 ft | 502 kts | 308° |
| 2026-05-04 15:36 | 7.11807 | 71.44425 | 35890 ft | 505 kts | 308° |
| 2026-05-04 15:37 | 7.16123 | 71.38809 | 35891 ft | 506 kts | 308° |
| 2026-05-04 15:37 | 7.20424 | 71.33212 | 35885 ft | 503 kts | 307° |
| 2026-05-04 15:38 | 7.24717 | 71.27623 | 35885 ft | 505 kts | 307° |
| 2026-05-04 15:38 | 7.29011 | 71.22031 | 35887 ft | 503 kts | 307° |
| 2026-05-04 15:39 | 7.33297 | 71.16446 | 35890 ft | 505 kts | 307° |
| 2026-05-04 15:40 | 7.39770 | 71.08010 | 35888 ft | 505 kts | 308° |
| 2026-05-04 15:40 | 7.44083 | 71.02385 | 35887 ft | 507 kts | 307° |
| 2026-05-04 15:41 | 7.48395 | 70.96794 | 35881 ft | 505 kts | 310° |
| 2026-05-04 15:41 | 7.53546 | 70.92014 | 35893 ft | 503 kts | 321° |
| 2026-05-04 15:42 | 7.59036 | 70.87624 | 35897 ft | 504 kts | 322° |
| 2026-05-04 15:42 | 7.64589 | 70.83210 | 35901 ft | 504 kts | 322° |
| 2026-05-04 15:43 | 7.70120 | 70.78824 | 35897 ft | 504 kts | 322° |
| 2026-05-04 15:43 | 7.75664 | 70.74435 | 35905 ft | 506 kts | 322° |
| 2026-05-04 15:44 | 7.81175 | 70.70074 | 35906 ft | 504 kts | 322° |
| 2026-05-04 15:44 | 7.86717 | 70.65691 | 35904 ft | 504 kts | 322° |
| 2026-05-04 15:45 | 7.92259 | 70.61307 | 35895 ft | 504 kts | 322° |
| 2026-05-04 15:45 | 7.97779 | 70.56942 | 35888 ft | 504 kts | 322° |
| 2026-05-04 15:46 | 8.03303 | 70.52571 | 35890 ft | 503 kts | 322° |
| 2026-05-04 15:46 | 8.08831 | 70.48196 | 35892 ft | 502 kts | 322° |
| 2026-05-04 15:47 | 8.14370 | 70.43812 | 35889 ft | 501 kts | 322° |
| 2026-05-04 15:47 | 8.19870 | 70.39457 | 35889 ft | 501 kts | 322° |
| 2026-05-04 15:48 | 8.25401 | 70.35075 | 35890 ft | 501 kts | 322° |
| 2026-05-04 15:48 | 8.33619 | 70.28564 | 35887 ft | 501 kts | 322° |
| 2026-05-04 15:49 | 8.39119 | 70.24203 | 35887 ft | 499 kts | 322° |
| 2026-05-04 15:49 | 8.44587 | 70.19866 | 35888 ft | 500 kts | 322° |
| 2026-05-04 15:50 | 8.50042 | 70.15537 | 35889 ft | 498 kts | 322° |
| 2026-05-04 15:50 | 8.55527 | 70.11184 | 35889 ft | 497 kts | 322° |
| 2026-05-04 15:51 | 8.60950 | 70.06879 | 35890 ft | 497 kts | 322° |
| 2026-05-04 15:51 | 8.66402 | 70.02548 | 35890 ft | 497 kts | 322° |
| 2026-05-04 15:52 | 8.71839 | 69.98228 | 35889 ft | 497 kts | 322° |
| 2026-05-04 15:52 | 8.77305 | 69.93883 | 35890 ft | 496 kts | 322° |
| 2026-05-04 15:53 | 8.82724 | 69.89574 | 35888 ft | 496 kts | 322° |
| 2026-05-04 15:53 | 8.88164 | 69.85246 | 35890 ft | 495 kts | 322° |
| 2026-05-04 15:54 | 8.93587 | 69.80930 | 35889 ft | 495 kts | 322° |
| 2026-05-04 15:54 | 8.99009 | 69.76614 | 35891 ft | 496 kts | 322° |
| 2026-05-04 15:55 | 9.04433 | 69.72294 | 35888 ft | 495 kts | 322° |
| 2026-05-04 15:55 | 9.09895 | 69.67943 | 35888 ft | 495 kts | 322° |
| 2026-05-04 15:56 | 9.15344 | 69.63599 | 35889 ft | 496 kts | 322° |
| 2026-05-04 15:56 | 9.20748 | 69.59290 | 35888 ft | 493 kts | 322° |
| 2026-05-04 15:57 | 9.26144 | 69.54985 | 35889 ft | 494 kts | 322° |
| 2026-05-04 15:57 | 9.31546 | 69.50674 | 35888 ft | 495 kts | 322° |
| 2026-05-04 15:58 | 9.36955 | 69.46355 | 35889 ft | 495 kts | 322° |
| 2026-05-04 15:58 | 9.42360 | 69.42039 | 35889 ft | 494 kts | 322° |
| 2026-05-04 15:59 | 9.47812 | 69.37682 | 35890 ft | 495 kts | 322° |
| 2026-05-04 15:59 | 9.53203 | 69.33373 | 35897 ft | 494 kts | 321° |
| 2026-05-04 16:00 | 9.58618 | 69.29044 | 35905 ft | 493 kts | 321° |
| 2026-05-04 16:00 | 9.64033 | 69.24711 | 35898 ft | 494 kts | 321° |
| 2026-05-04 16:01 | 9.69434 | 69.20389 | 35896 ft | 493 kts | 321° |
| 2026-05-04 16:01 | 9.74825 | 69.16072 | 35895 ft | 493 kts | 321° |
| 2026-05-04 16:02 | 9.80255 | 69.11718 | 35893 ft | 493 kts | 321° |
| 2026-05-04 16:03 | 9.88377 | 69.05202 | 35889 ft | 494 kts | 321° |
| 2026-05-04 16:03 | 9.93774 | 69.00870 | 35890 ft | 493 kts | 321° |
| 2026-05-04 16:04 | 9.99156 | 68.96548 | 35890 ft | 493 kts | 321° |
| 2026-05-04 16:04 | 10.07264 | 68.90033 | 35890 ft | 494 kts | 321° |
| 2026-05-04 16:05 | 10.12662 | 68.85694 | 35888 ft | 494 kts | 321° |
| 2026-05-04 16:06 | 10.20766 | 68.79176 | 35888 ft | 494 kts | 321° |
| 2026-05-04 16:07 | 10.31561 | 68.70486 | 35888 ft | 494 kts | 321° |
| 2026-05-04 16:08 | 10.42385 | 68.61766 | 35888 ft | 494 kts | 321° |
| 2026-05-04 16:09 | 10.55882 | 68.50880 | 35889 ft | 495 kts | 322° |
| 2026-05-04 16:10 | 10.66670 | 68.42170 | 35890 ft | 495 kts | 322° |
| 2026-05-04 16:11 | 10.77467 | 68.33445 | 35888 ft | 495 kts | 321° |
| 2026-05-04 16:12 | 10.93668 | 68.20338 | 35889 ft | 494 kts | 321° |
| 2026-05-04 16:13 | 11.04493 | 68.11569 | 35888 ft | 494 kts | 322° |
| 2026-05-04 16:14 | 11.15229 | 68.02864 | 35889 ft | 493 kts | 321° |
| 2026-05-04 16:16 | 11.28690 | 67.91938 | 35889 ft | 493 kts | 322° |
| 2026-05-04 16:17 | 11.42194 | 67.80963 | 35889 ft | 493 kts | 322° |
| 2026-05-04 16:18 | 11.52922 | 67.72235 | 35887 ft | 493 kts | 322° |
| 2026-05-04 16:19 | 11.66358 | 67.61290 | 35875 ft | 493 kts | 322° |
| 2026-05-04 16:20 | 11.79751 | 67.50367 | 35879 ft | 493 kts | 322° |
| 2026-05-04 16:22 | 11.93198 | 67.39386 | 35888 ft | 495 kts | 322° |
| 2026-05-04 16:23 | 12.09378 | 67.26157 | 35887 ft | 495 kts | 322° |
| 2026-05-04 16:25 | 12.25544 | 67.12920 | 35888 ft | 495 kts | 322° |
| 2026-05-04 16:26 | 12.44392 | 66.97459 | 35890 ft | 495 kts | 322° |
| 2026-05-04 16:28 | 12.57879 | 66.86378 | 35889 ft | 495 kts | 322° |
| 2026-05-04 16:29 | 12.76692 | 66.70895 | 35889 ft | 495 kts | 322° |
| 2026-05-04 16:31 | 12.90133 | 66.59815 | 35889 ft | 494 kts | 322° |
| 2026-05-04 16:32 | 13.06254 | 66.46504 | 35875 ft | 494 kts | 322° |
| 2026-05-04 16:33 | 13.16986 | 66.37631 | 35870 ft | 495 kts | 322° |
| 2026-05-04 16:34 | 13.25028 | 66.30973 | 35867 ft | 494 kts | 322° |
| 2026-05-04 16:35 | 13.41116 | 66.17640 | 35867 ft | 494 kts | 322° |
| 2026-05-04 16:36 | 13.49173 | 66.10953 | 35867 ft | 494 kts | 322° |
| 2026-05-04 16:37 | 13.57217 | 66.04272 | 35868 ft | 495 kts | 322° |
| 2026-05-04 16:38 | 13.67936 | 65.95359 | 35868 ft | 495 kts | 322° |
| 2026-05-04 16:39 | 13.81344 | 65.84195 | 35869 ft | 495 kts | 322° |
| 2026-05-04 16:40 | 13.92071 | 65.75251 | 35871 ft | 494 kts | 322° |
| 2026-05-04 16:41 | 14.05498 | 65.64040 | 35870 ft | 494 kts | 322° |
| 2026-05-04 16:43 | 14.18847 | 65.52877 | 35883 ft | 494 kts | 322° |
| 2026-05-04 16:43 | 14.26843 | 65.46182 | 35880 ft | 493 kts | 322° |
| 2026-05-04 16:45 | 14.42873 | 65.32742 | 35871 ft | 492 kts | 322° |
| 2026-05-04 16:46 | 14.56126 | 65.21609 | 35868 ft | 491 kts | 322° |
| 2026-05-04 16:47 | 14.66771 | 65.12651 | 35868 ft | 491 kts | 322° |
| 2026-05-04 16:48 | 14.77382 | 65.03709 | 35868 ft | 490 kts | 321° |
| 2026-05-04 16:49 | 14.87955 | 64.94787 | 35869 ft | 490 kts | 321° |
| 2026-05-04 16:50 | 14.98575 | 64.85813 | 35868 ft | 489 kts | 321° |
| 2026-05-04 16:51 | 15.06484 | 64.79123 | 35866 ft | 489 kts | 321° |
| 2026-05-04 16:52 | 15.17034 | 64.70188 | 35869 ft | 490 kts | 321° |
| 2026-05-04 16:53 | 15.24971 | 64.63457 | 35867 ft | 490 kts | 321° |
| 2026-05-04 16:54 | 15.35528 | 64.54496 | 35864 ft | 489 kts | 321° |
| 2026-05-04 16:55 | 15.51314 | 64.41072 | 35857 ft | 489 kts | 321° |
| 2026-05-04 16:56 | 15.64502 | 64.29837 | 35850 ft | 489 kts | 321° |
| 2026-05-04 16:57 | 15.72417 | 64.23084 | 35850 ft | 489 kts | 321° |
| 2026-05-04 16:58 | 15.82935 | 64.14101 | 35850 ft | 488 kts | 321° |
| 2026-05-04 17:00 | 15.98707 | 64.00606 | 35847 ft | 488 kts | 321° |
| 2026-05-04 17:01 | 16.11804 | 63.89378 | 35844 ft | 487 kts | 321° |
| 2026-05-04 17:02 | 16.22298 | 63.80367 | 35846 ft | 487 kts | 321° |
| 2026-05-04 17:03 | 16.30161 | 63.73607 | 35852 ft | 486 kts | 321° |
| 2026-05-04 17:03 | 16.38002 | 63.66858 | 35853 ft | 487 kts | 321° |
| 2026-05-04 17:04 | 16.48433 | 63.57870 | 35850 ft | 486 kts | 321° |
| 2026-05-04 17:05 | 16.58876 | 63.48857 | 35853 ft | 486 kts | 321° |
| 2026-05-04 17:06 | 16.66701 | 63.42096 | 35853 ft | 485 kts | 320° |
| 2026-05-04 17:07 | 16.73659 | 63.36078 | 35848 ft | 485 kts | 320° |
| 2026-05-04 17:07 | 16.79756 | 63.30799 | 35844 ft | 486 kts | 320° |
| 2026-05-04 17:08 | 16.87563 | 63.24034 | 35845 ft | 486 kts | 320° |
| 2026-05-04 17:09 | 16.92767 | 63.19519 | 35845 ft | 487 kts | 320° |
| 2026-05-04 17:09 | 16.97982 | 63.14993 | 35847 ft | 486 kts | 320° |
| 2026-05-04 17:10 | 17.10834 | 63.03473 | 35846 ft | 488 kts | 319° |
| 2026-05-04 17:11 | 17.15958 | 62.98809 | 35844 ft | 487 kts | 319° |
| 2026-05-04 17:12 | 17.23646 | 62.91811 | 35843 ft | 486 kts | 319° |
| 2026-05-04 17:13 | 17.36435 | 62.80159 | 35838 ft | 487 kts | 319° |
| 2026-05-04 17:14 | 17.46683 | 62.70808 | 35835 ft | 486 kts | 319° |
| 2026-05-04 17:15 | 17.54349 | 62.63805 | 35832 ft | 486 kts | 319° |
| 2026-05-04 17:16 | 17.64580 | 62.54445 | 35826 ft | 487 kts | 319° |
| 2026-05-04 17:17 | 17.74777 | 62.45101 | 35826 ft | 487 kts | 319° |
| 2026-05-04 17:18 | 17.84957 | 62.35759 | 35824 ft | 486 kts | 318° |
| 2026-05-04 17:19 | 17.95122 | 62.26416 | 35814 ft | 484 kts | 318° |
| 2026-05-04 17:20 | 18.05309 | 62.17038 | 35809 ft | 486 kts | 318° |
| 2026-05-04 17:20 | 18.12954 | 62.09990 | 35808 ft | 485 kts | 318° |
| 2026-05-04 17:21 | 18.23157 | 62.00571 | 35808 ft | 484 kts | 318° |
| 2026-05-04 17:22 | 18.28247 | 61.95866 | 35811 ft | 483 kts | 318° |
| 2026-05-04 17:23 | 18.38373 | 61.86494 | 35814 ft | 483 kts | 318° |
| 2026-05-04 17:24 | 18.45966 | 61.79457 | 35807 ft | 483 kts | 318° |
| 2026-05-04 17:25 | 18.56078 | 61.70073 | 35810 ft | 483 kts | 317° |
| 2026-05-04 17:26 | 18.66135 | 61.60723 | 35806 ft | 483 kts | 317° |
| 2026-05-04 17:27 | 18.78745 | 61.48979 | 35807 ft | 481 kts | 317° |
| 2026-05-04 17:28 | 18.88813 | 61.39584 | 35804 ft | 481 kts | 317° |
| 2026-05-04 17:29 | 19.03912 | 61.25466 | 35805 ft | 481 kts | 317° |
| 2026-05-04 17:31 | 19.16437 | 61.13727 | 35790 ft | 480 kts | 317° |
| 2026-05-04 17:32 | 19.28998 | 61.01929 | 35785 ft | 480 kts | 317° |
| 2026-05-04 17:33 | 19.38999 | 60.92518 | 35782 ft | 480 kts | 317° |
| 2026-05-04 17:34 | 19.49015 | 60.83078 | 35777 ft | 479 kts | 317° |
| 2026-05-04 17:35 | 19.61442 | 60.71341 | 35775 ft | 480 kts | 317° |
| 2026-05-04 17:36 | 19.66487 | 60.66568 | 35773 ft | 479 kts | 317° |
| 2026-05-04 17:36 | 19.71443 | 60.61877 | 35773 ft | 479 kts | 317° |
| 2026-05-04 17:37 | 19.76419 | 60.57161 | 35769 ft | 479 kts | 317° |
| 2026-05-04 17:37 | 19.81404 | 60.52434 | 35764 ft | 479 kts | 317° |
| 2026-05-04 17:38 | 19.86375 | 60.47716 | 35765 ft | 479 kts | 317° |
| 2026-05-04 17:38 | 19.91344 | 60.42995 | 35771 ft | 478 kts | 317° |
| 2026-05-04 17:39 | 19.98772 | 60.35931 | 35770 ft | 479 kts | 317° |
| 2026-05-04 17:39 | 20.03776 | 60.31192 | 35763 ft | 479 kts | 320° |
| 2026-05-04 17:40 | 20.09347 | 60.27302 | 35779 ft | 480 kts | 327° |
| 2026-05-04 17:40 | 20.15104 | 60.23630 | 35784 ft | 479 kts | 327° |
| 2026-05-04 17:41 | 20.20890 | 60.19947 | 35785 ft | 480 kts | 327° |
| 2026-05-04 17:41 | 20.26601 | 60.16313 | 35787 ft | 480 kts | 327° |
| 2026-05-04 17:42 | 20.32343 | 60.12660 | 35785 ft | 479 kts | 327° |
| 2026-05-04 17:42 | 20.38103 | 60.08994 | 35785 ft | 479 kts | 327° |
| 2026-05-04 17:43 | 20.43853 | 60.05332 | 35782 ft | 479 kts | 327° |
| 2026-05-04 17:43 | 20.49602 | 60.01668 | 35776 ft | 478 kts | 327° |
| 2026-05-04 17:44 | 20.55311 | 59.98027 | 35773 ft | 479 kts | 327° |
| 2026-05-04 17:44 | 20.61039 | 59.94370 | 35770 ft | 478 kts | 327° |
| 2026-05-04 17:45 | 20.66800 | 59.90690 | 35771 ft | 479 kts | 327° |
| 2026-05-04 17:45 | 20.72495 | 59.87049 | 35770 ft | 479 kts | 327° |
| 2026-05-04 17:46 | 20.78222 | 59.83384 | 35766 ft | 478 kts | 327° |
| 2026-05-04 17:46 | 20.83942 | 59.79720 | 35765 ft | 478 kts | 327° |
| 2026-05-04 17:47 | 20.89644 | 59.76064 | 35764 ft | 478 kts | 327° |
| 2026-05-04 17:47 | 20.95361 | 59.72396 | 35762 ft | 477 kts | 327° |
| 2026-05-04 17:48 | 21.01086 | 59.68718 | 35761 ft | 478 kts | 327° |
| 2026-05-04 17:48 | 21.06777 | 59.65058 | 35763 ft | 478 kts | 327° |
| 2026-05-04 17:49 | 21.12502 | 59.61372 | 35761 ft | 478 kts | 327° |
| 2026-05-04 17:49 | 21.18214 | 59.57691 | 35760 ft | 477 kts | 327° |
| 2026-05-04 17:50 | 21.23882 | 59.54035 | 35771 ft | 477 kts | 327° |
| 2026-05-04 17:50 | 21.29593 | 59.50346 | 35785 ft | 477 kts | 327° |
| 2026-05-04 17:51 | 21.35281 | 59.46669 | 35783 ft | 477 kts | 327° |
| 2026-05-04 17:51 | 21.40973 | 59.42986 | 35785 ft | 477 kts | 327° |
| 2026-05-04 17:52 | 21.46656 | 59.39305 | 35788 ft | 477 kts | 327° |
| 2026-05-04 17:52 | 21.52384 | 59.35592 | 35787 ft | 478 kts | 327° |
| 2026-05-04 17:53 | 21.58039 | 59.31922 | 35799 ft | 478 kts | 327° |
| 2026-05-04 17:53 | 21.63748 | 59.28216 | 35804 ft | 477 kts | 327° |
| 2026-05-04 17:54 | 21.69425 | 59.24528 | 35798 ft | 476 kts | 327° |
| 2026-05-04 17:54 | 21.75092 | 59.20843 | 35799 ft | 476 kts | 327° |
| 2026-05-04 17:55 | 21.80761 | 59.17153 | 35802 ft | 475 kts | 327° |
| 2026-05-04 17:55 | 21.86444 | 59.13451 | 35803 ft | 477 kts | 327° |
| 2026-05-04 17:56 | 21.92138 | 59.09738 | 35817 ft | 477 kts | 327° |
| 2026-05-04 17:56 | 21.97800 | 59.06043 | 35821 ft | 479 kts | 327° |
| 2026-05-04 17:57 | 22.03511 | 59.02312 | 35842 ft | 477 kts | 327° |
| 2026-05-04 17:57 | 22.09215 | 58.98582 | 35842 ft | 478 kts | 327° |
| 2026-05-04 17:58 | 22.14938 | 58.94836 | 35850 ft | 476 kts | 326° |
| 2026-05-04 17:58 | 22.20578 | 58.91141 | 35846 ft | 477 kts | 326° |
| 2026-05-04 17:59 | 22.26241 | 58.87427 | 35848 ft | 476 kts | 326° |
| 2026-05-04 18:00 | 22.34754 | 58.81838 | 35859 ft | 476 kts | 326° |
| 2026-05-04 18:00 | 22.40454 | 58.78091 | 35876 ft | 475 kts | 326° |
| 2026-05-04 18:01 | 22.46122 | 58.74361 | 35882 ft | 474 kts | 326° |
| 2026-05-04 18:01 | 22.51758 | 58.70650 | 35891 ft | 474 kts | 326° |
| 2026-05-04 18:02 | 22.60197 | 58.65085 | 35902 ft | 473 kts | 326° |
| 2026-05-04 18:02 | 22.65889 | 58.61327 | 35909 ft | 473 kts | 326° |
| 2026-05-04 18:03 | 22.71528 | 58.57601 | 35917 ft | 473 kts | 326° |
| 2026-05-04 18:03 | 22.77140 | 58.53891 | 35924 ft | 473 kts | 326° |
| 2026-05-04 18:04 | 22.82781 | 58.50157 | 35945 ft | 472 kts | 326° |
| 2026-05-04 18:05 | 22.91215 | 58.44568 | 35971 ft | 472 kts | 326° |
| 2026-05-04 18:05 | 22.96830 | 58.40842 | 35984 ft | 472 kts | 326° |
| 2026-05-04 18:06 | 23.05268 | 58.35235 | 35986 ft | 472 kts | 326° |
| 2026-05-04 18:06 | 23.10840 | 58.31526 | 35995 ft | 471 kts | 325° |
| 2026-05-04 18:07 | 23.16445 | 58.27791 | 35987 ft | 471 kts | 325° |
| 2026-05-04 18:07 | 23.22028 | 58.24067 | 35995 ft | 471 kts | 325° |
| 2026-05-04 18:08 | 23.27627 | 58.20329 | 35959 ft | 471 kts | 325° |
| 2026-05-04 18:08 | 23.33254 | 58.16568 | 35918 ft | 472 kts | 325° |
| 2026-05-04 18:09 | 23.38581 | 58.12476 | 35883 ft | 467 kts | 314° |
| 2026-05-04 18:09 | 23.42706 | 58.07113 | 35858 ft | 464 kts | 305° |
| 2026-05-04 18:10 | 23.46559 | 58.01480 | 35841 ft | 464 kts | 304° |
| 2026-05-04 18:10 | 23.50376 | 57.95789 | 35821 ft | 463 kts | 304° |
| 2026-05-04 18:11 | 23.54141 | 57.90110 | 35817 ft | 464 kts | 304° |
| 2026-05-04 18:11 | 23.57902 | 57.84398 | 35797 ft | 463 kts | 303° |
| 2026-05-04 18:12 | 23.61766 | 57.78777 | 35780 ft | 464 kts | 306° |
| 2026-05-04 18:12 | 23.65760 | 57.73254 | 35769 ft | 463 kts | 306° |
| 2026-05-04 18:13 | 23.69736 | 57.67730 | 35773 ft | 463 kts | 306° |
| 2026-05-04 18:14 | 23.75667 | 57.59450 | 35767 ft | 462 kts | 306° |
| 2026-05-04 18:14 | 23.79627 | 57.53905 | 35753 ft | 462 kts | 306° |
| 2026-05-04 18:15 | 23.87508 | 57.42842 | 35756 ft | 462 kts | 306° |
| 2026-05-04 18:16 | 23.91482 | 57.37252 | 35754 ft | 462 kts | 306° |
| 2026-05-04 18:16 | 23.95390 | 57.31748 | 35768 ft | 461 kts | 306° |
| 2026-05-04 18:17 | 24.01284 | 57.23434 | 35760 ft | 462 kts | 306° |
| 2026-05-04 18:18 | 24.07200 | 57.15076 | 35763 ft | 460 kts | 305° |
| 2026-05-04 18:18 | 24.11119 | 57.09533 | 35596 ft | 455 kts | 305° |
| 2026-05-04 18:18 | 24.13042 | 57.06809 | 34737 ft | 458 kts | 306° |
| 2026-05-04 18:19 | 24.16977 | 57.01231 | 32927 ft | 462 kts | 306° |
| 2026-05-04 18:19 | 24.18926 | 56.98465 | 32090 ft | 464 kts | 306° |
| 2026-05-04 18:19 | 24.20906 | 56.95655 | 31249 ft | 465 kts | 306° |
| 2026-05-04 18:20 | 24.22865 | 56.92873 | 30412 ft | 467 kts | 306° |
| 2026-05-04 18:20 | 24.24848 | 56.90054 | 29888 ft | 460 kts | 306° |
| 2026-05-04 18:20 | 24.26781 | 56.87305 | 29417 ft | 454 kts | 306° |
| 2026-05-04 18:20 | 24.28676 | 56.84609 | 28899 ft | 449 kts | 306° |
| 2026-05-04 18:21 | 24.30584 | 56.81892 | 28377 ft | 444 kts | 306° |
| 2026-05-04 18:21 | 24.32450 | 56.79232 | 27838 ft | 440 kts | 306° |
| 2026-05-04 18:21 | 24.34309 | 56.76582 | 27298 ft | 437 kts | 306° |
| 2026-05-04 18:21 | 24.36145 | 56.73964 | 26744 ft | 434 kts | 306° |
| 2026-05-04 18:22 | 24.37979 | 56.71346 | 26203 ft | 430 kts | 306° |
| 2026-05-04 18:22 | 24.39777 | 56.68778 | 25671 ft | 427 kts | 306° |
| 2026-05-04 18:22 | 24.41587 | 56.66191 | 25119 ft | 434 kts | 306° |
| 2026-05-04 18:22 | 24.43463 | 56.63550 | 24542 ft | 440 kts | 309° |
| 2026-05-04 18:23 | 24.45509 | 56.61083 | 23974 ft | 439 kts | 312° |
| 2026-05-04 18:23 | 24.47596 | 56.58648 | 23379 ft | 436 kts | 312° |
| 2026-05-04 18:23 | 24.49664 | 56.56235 | 22797 ft | 433 kts | 312° |
| 2026-05-04 18:23 | 24.51699 | 56.53859 | 22215 ft | 430 kts | 312° |
| 2026-05-04 18:24 | 24.53748 | 56.51465 | 21628 ft | 427 kts | 312° |
| 2026-05-04 18:24 | 24.55773 | 56.49096 | 21054 ft | 423 kts | 312° |
| 2026-05-04 18:24 | 24.57760 | 56.46770 | 20484 ft | 420 kts | 313° |
| 2026-05-04 18:24 | 24.59768 | 56.44418 | 19907 ft | 417 kts | 313° |
| 2026-05-04 18:25 | 24.61719 | 56.42133 | 19351 ft | 414 kts | 313° |
| 2026-05-04 18:25 | 24.63692 | 56.39819 | 18789 ft | 410 kts | 313° |
| 2026-05-04 18:25 | 24.65649 | 56.37523 | 18228 ft | 407 kts | 313° |
| 2026-05-04 18:25 | 24.67571 | 56.35266 | 17675 ft | 404 kts | 314° |
| 2026-05-04 18:26 | 24.69548 | 56.33127 | 17111 ft | 401 kts | 320° |
| 2026-05-04 18:26 | 24.71841 | 56.31399 | 16542 ft | 397 kts | 331° |
| 2026-05-04 18:26 | 24.74369 | 56.30168 | 15986 ft | 394 kts | 340° |
| 2026-05-04 18:26 | 24.76952 | 56.29205 | 15409 ft | 393 kts | 341° |
| 2026-05-04 18:27 | 24.79557 | 56.28293 | 14823 ft | 391 kts | 342° |
| 2026-05-04 18:27 | 24.82128 | 56.27303 | 14226 ft | 389 kts | 336° |
| 2026-05-04 18:27 | 24.84459 | 56.25850 | 13647 ft | 388 kts | 325° |
| 2026-05-04 18:27 | 24.86491 | 56.23916 | 13074 ft | 386 kts | 314° |
| 2026-05-04 18:28 | 24.88206 | 56.21664 | 12833 ft | 375 kts | 309° |
| 2026-05-04 18:28 | 24.89738 | 56.19408 | 12815 ft | 359 kts | 307° |
| 2026-05-04 18:28 | 24.91149 | 56.17200 | 12727 ft | 345 kts | 306° |
| 2026-05-04 18:28 | 24.92492 | 56.15053 | 12601 ft | 333 kts | 306° |
| 2026-05-04 18:29 | 24.93759 | 56.12968 | 12454 ft | 323 kts | 305° |
| 2026-05-04 18:29 | 24.94968 | 56.10926 | 12299 ft | 313 kts | 304° |
| 2026-05-04 18:29 | 24.96106 | 56.08943 | 12241 ft | 300 kts | 303° |
| 2026-05-04 18:29 | 24.97005 | 56.06925 | 12130 ft | 291 kts | 288° |
| 2026-05-04 18:30 | 24.97717 | 56.02576 | 11509 ft | 289 kts | 280° |
| 2026-05-04 18:30 | 24.97960 | 56.00371 | 11169 ft | 289 kts | 279° |
| 2026-05-04 18:30 | 24.98185 | 55.98165 | 10831 ft | 288 kts | 279° |
| 2026-05-04 18:31 | 24.98400 | 55.95998 | 10533 ft | 285 kts | 279° |
| 2026-05-04 18:31 | 24.98612 | 55.93832 | 10216 ft | 284 kts | 279° |
| 2026-05-04 18:31 | 24.98820 | 55.91680 | 10012 ft | 277 kts | 279° |
| 2026-05-04 18:31 | 24.99019 | 55.89619 | 9841 ft | 270 kts | 279° |
| 2026-05-04 18:32 | 24.99218 | 55.87561 | 9553 ft | 268 kts | 279° |
| 2026-05-04 18:32 | 24.99416 | 55.85512 | 9238 ft | 267 kts | 279° |
| 2026-05-04 18:32 | 24.99609 | 55.83506 | 8946 ft | 266 kts | 280° |
| 2026-05-04 18:32 | 25.00129 | 55.81593 | 8573 ft | 260 kts | 302° |
| 2026-05-04 18:33 | 25.01049 | 55.79876 | 8229 ft | 260 kts | 304° |
| 2026-05-04 18:33 | 25.01986 | 55.78155 | 7880 ft | 261 kts | 304° |
| 2026-05-04 18:33 | 25.02914 | 55.76454 | 7531 ft | 262 kts | 304° |
| 2026-05-04 18:33 | 25.03859 | 55.74730 | 7172 ft | 263 kts | 304° |
| 2026-05-04 18:34 | 25.04802 | 55.73013 | 6807 ft | 264 kts | 304° |
| 2026-05-04 18:34 | 25.05752 | 55.71279 | 6450 ft | 262 kts | 304° |
| 2026-05-04 18:34 | 25.06685 | 55.69575 | 6077 ft | 257 kts | 304° |
| 2026-05-04 18:34 | 25.07587 | 55.67930 | 5736 ft | 250 kts | 304° |
| 2026-05-04 18:35 | 25.08485 | 55.66300 | 5430 ft | 245 kts | 304° |
| 2026-05-04 18:35 | 25.09375 | 55.64701 | 5082 ft | 240 kts | 304° |
| 2026-05-04 18:35 | 25.10240 | 55.63166 | 4757 ft | 233 kts | 304° |
| 2026-05-04 18:35 | 25.11088 | 55.61687 | 4449 ft | 226 kts | 304° |
| 2026-05-04 18:36 | 25.11922 | 55.60247 | 4162 ft | 216 kts | 304° |
| 2026-05-04 18:36 | 25.12703 | 55.58898 | 3891 ft | 205 kts | 304° |
| 2026-05-04 18:36 | 25.13449 | 55.57604 | 3637 ft | 195 kts | 303° |
| 2026-05-04 18:36 | 25.14150 | 55.56371 | 3412 ft | 186 kts | 303° |
| 2026-05-04 18:37 | 25.14826 | 55.55171 | 3170 ft | 182 kts | 302° |
| 2026-05-04 18:37 | 25.15495 | 55.53977 | 2925 ft | 179 kts | 302° |
| 2026-05-04 18:37 | 25.16133 | 55.52835 | 2698 ft | 175 kts | 302° |
| 2026-05-04 18:37 | 25.16767 | 55.51700 | 2476 ft | 171 kts | 302° |
| 2026-05-04 18:38 | 25.17385 | 55.50591 | 2256 ft | 168 kts | 302° |
| 2026-05-04 18:38 | 25.18003 | 55.49486 | 2040 ft | 166 kts | 302° |
| 2026-05-04 18:38 | 25.18587 | 55.48437 | 1832 ft | 158 kts | 302° |
| 2026-05-04 18:38 | 25.19152 | 55.47427 | 1635 ft | 150 kts | 302° |
| 2026-05-04 18:39 | 25.19695 | 55.46455 | 1448 ft | 150 kts | 302° |
| 2026-05-04 18:39 | 25.20245 | 55.45476 | 1221 ft | 150 kts | 301° |
| 2026-05-04 18:39 | 25.20799 | 55.44493 | 1004 ft | 151 kts | 302° |
| 2026-05-04 18:39 | 25.21355 | 55.43511 | 837 ft | 151 kts | 301° |
| 2026-05-04 18:40 | 25.21903 | 55.42515 | 677 ft | 152 kts | 301° |
| 2026-05-04 18:40 | 25.22352 | 55.41707 | 512 ft | 153 kts | 301° |
| 2026-05-04 18:40 | 25.22912 | 55.40696 | 307 ft | 154 kts | 301° |
| 2026-05-04 18:40 | 25.23477 | 55.39692 | 113 ft | 155 kts | 300° |
| 2026-05-04 18:41 | 25.24018 | 55.38713 | 47 ft | 140 kts | 301° |
| 2026-05-04 18:41 | 25.24453 | 55.37922 | 46 ft | 96 kts | 301° |
| 2026-05-04 18:41 | 25.24699 | 55.37485 | 46 ft | 30 kts | 300° |
| 2026-05-04 18:41 | 25.24769 | 55.37307 | 45 ft | 23 kts | 285° |
| 2026-05-04 18:42 | 25.24790 | 55.37153 | 45 ft | 17 kts | 274° |
| 2026-05-04 18:42 | 25.24791 | 55.37025 | 45 ft | 15 kts | 273° |
| 2026-05-04 18:42 | 25.24816 | 55.36913 | 45 ft | 14 kts | 296° |
| 2026-05-04 18:42 | 25.24855 | 55.36814 | 45 ft | 13 kts | 286° |
| 2026-05-04 18:43 | 25.24875 | 55.36715 | 45 ft | 12 kts | 283° |
| 2026-05-04 18:43 | 25.24910 | 55.36628 | 45 ft | 11 kts | 303° |
| 2026-05-04 18:43 | 25.24942 | 55.36557 | 45 ft | 9 kts | 266° |
| 2026-05-04 18:43 | 25.24904 | 55.36505 | 45 ft | 9 kts | 210° |
| 2026-05-04 18:44 | 25.24854 | 55.36472 | 45 ft | 6 kts | 211° |
| 2026-05-04 18:44 | 25.24834 | 55.36459 | 45 ft | 3 kts | 211° |
| 2026-05-04 18:44 | 25.24812 | 55.36445 | 45 ft | 1 kts | 211° |
| 2026-05-04 18:44 | 25.24806 | 55.36440 | 45 ft | 0 kts | 211° |